Sasaki, Shun (2026): Radiosonde measurements from station Ishigakijima (2025-12) [dataset]. Japan Meteorological Agency, Tokyo, PANGAEA, https://doi.org/10.1594/PANGAEA.992664
Always quote citation above when using data! You can download the citation in several formats below.
Published: 2026-02-26 • DOI registered: 2026-03-27
Other version:
Sasaki, Shun (2026): BSRN Station-to-archive file for station Ishigakijima (2025-12) [dataset]. ftp://ftp.bsrn.awi.de/ish/ish1225.dat.gz
Project(s):
Coverage:
Latitude: 24.336700 * Longitude: 124.164400
Date/Time Start: 2025-12-01T00:00:00 * Date/Time End: 2025-12-31T23:59:00
Minimum ALTITUDE: 8 m * Maximum ALTITUDE: 28905 m
Event(s):
ISH (Ishigakijima) * Latitude: 24.336700 * Longitude: 124.164400 * Date/Time: 2010-04-01T00:00:00 * Elevation: 5.7 m * Station info: https://hdl.handle.net/10013/epic.44630.d026, update 2022: Ishigakijima.pdf * Location: Japan * Method/Device: Monitoring station (MONS) * Comment: BSRN station no: 7; Surface type: asphalt; Topography type: flat, rural; Horizon: doi:10.1594/PANGAEA.743878; Station scientist: SASAKI Shun (rrc-jma@met.kishou.go.jp)
Parameter(s):
| # | Name | Short Name | Unit | Principal Investigator | Method/Device | Comment |
|---|---|---|---|---|---|---|
| 1 | DATE/TIME | Date/Time | Sasaki, Shun | Geocode | ||
| 2 | ALTITUDE | Altitude | m | Sasaki, Shun | Geocode | |
| 3 | Pressure, at given altitude | PPPP | hPa | Sasaki, Shun | Radiosonde, Meisei, iMS | |
| 4 | Temperature, air | TTT | °C | Sasaki, Shun | Radiosonde, Meisei, iMS | |
| 5 | Dew/frost point | TdTdTd | °C | Sasaki, Shun | Radiosonde, Meisei, iMS | |
| 6 | Wind direction | dd | deg | Sasaki, Shun | Radiosonde, Meisei, iMS | |
| 7 | Wind speed | ff | m/s | Sasaki, Shun | Radiosonde, Meisei, iMS |
License:
Status:
Curation Level: Enhanced curation (CurationLevelC)
Size:
30315 data points
Data
| 1 Date/Time | 2 Altitude [m] | 3 PPPP [hPa] | 4 TTT [°C] | 5 TdTdTd [°C] | 6 dd [deg] | 7 ff [m/s] |
|---|---|---|---|---|---|---|
| 2025-12-01T00:00 | 9546 | 303 | -30.7 | -35.6 | ||
| 2025-12-01T00:00 | 9644 | 299 | 263 | 37 | ||
| 2025-12-01T00:01 | 9809 | 292 | -33.1 | -39.3 | ||
| 2025-12-01T00:01 | 9853 | 291 | -33.2 | -40.9 | ||
| 2025-12-01T00:01 | 9880 | 289 | 260 | 39 | ||
| 2025-12-01T00:01 | 9889 | 289 | -33.6 | -40.3 | ||
| 2025-12-01T00:01 | 9955 | 286 | -33.6 | -46.5 | ||
| 2025-12-01T00:01 | 9999 | 285 | 267 | 42 | ||
| 2025-12-01T00:02 | 10096 | 281 | -34.3 | -48.2 | ||
| 2025-12-01T00:02 | 10147 | 279 | -34.8 | -49.1 | ||
| 2025-12-01T00:02 | 10259 | 274 | 271 | 42 | ||
| 2025-12-01T00:02 | 10263 | 274 | -35.8 | -49.2 | ||
| 2025-12-01T00:03 | 10446 | 267 | -37.1 | -52.3 | ||
| 2025-12-01T00:03 | 10540 | 263 | 275 | 41 | ||
| 2025-12-01T00:04 | 10719 | 256 | -39.2 | -53.3 | ||
| 2025-12-01T00:04 | 10837 | 252 | -40.0 | -55.3 | ||
| 2025-12-01T00:04 | 10848 | 252 | 274 | 41 | ||
| 2025-12-01T00:05 | 11153 | 241 | 278 | 43 | ||
| 2025-12-01T00:06 | 11418 | 231 | 279 | 43 | ||
| 2025-12-01T00:07 | 11648 | 223 | 281 | 42 | ||
| 2025-12-01T00:08 | 11831 | 217 | -47.8 | |||
| 2025-12-01T00:08 | 11928 | 214 | 270 | 39 | ||
| 2025-12-01T00:09 | 12236 | 204 | 262 | 36 | ||
| 2025-12-01T00:09 | 12240 | 204 | -50.9 | |||
| 2025-12-01T00:10 | 12495 | 196 | 257 | 38 | ||
| 2025-12-01T00:11 | 12760 | 188 | 256 | 39 | ||
| 2025-12-01T00:12 | 13010 | 181 | 259 | 40 | ||
| 2025-12-01T00:13 | 13258 | 174 | 260 | 40 | ||
| 2025-12-01T00:14 | 13349 | 172 | -60.4 | |||
| 2025-12-01T00:14 | 13521 | 167 | 262 | 41 | ||
| 2025-12-01T00:15 | 13779 | 160 | 262 | 42 | ||
| 2025-12-01T00:16 | 13985 | 155 | -65.0 | |||
| 2025-12-01T00:16 | 14037 | 153 | 268 | 42 | ||
| 2025-12-01T00:17 | 14206 | 149 | -65.8 | |||
| 2025-12-01T00:17 | 14288 | 147 | 272 | 41 | ||
| 2025-12-01T00:18 | 14444 | 143 | -66.6 | |||
| 2025-12-01T00:18 | 14534 | 141 | 269 | 39 | ||
| 2025-12-01T00:19 | 14753 | 136 | -68.4 | |||
| 2025-12-01T00:19 | 14769 | 136 | 264 | 38 | ||
| 2025-12-01T00:20 | 15041 | 130 | 255 | 34 | ||
| 2025-12-01T00:20 | 15046 | 130 | -69.4 | |||
| 2025-12-01T00:21 | 15311 | 124 | 250 | 34 | ||
| 2025-12-01T00:22 | 15566 | 119 | 249 | 34 | ||
| 2025-12-01T00:23 | 15828 | 114 | 249 | 36 | ||
| 2025-12-01T00:24 | 15883 | 112 | -76.4 | |||
| 2025-12-01T00:24 | 16065 | 109 | -76.1 | |||
| 2025-12-01T00:24 | 16069 | 109 | 258 | 36 | ||
| 2025-12-01T00:25 | 16197 | 106 | -75.2 | |||
| 2025-12-01T00:25 | 16323 | 104 | 249 | 30 | ||
| 2025-12-01T00:26 | 16562 | 100 | 242 | 30 | ||
| 2025-12-01T00:26 | 16586 | 100 | -77.3 | |||
| 2025-12-01T00:27 | 16809 | 96 | 250 | 30 | ||
| 2025-12-01T00:28 | 17040 | 92 | 266 | 25 | ||
| 2025-12-01T00:29 | 17246 | 89 | -79.1 | |||
| 2025-12-01T00:29 | 17310 | 88 | 270 | 21 | ||
| 2025-12-01T00:30 | 17580 | 84 | 266 | 19 | ||
| 2025-12-01T00:30 | 17622 | 83 | -81.3 | |||
| 2025-12-01T00:31 | 17871 | 79 | 267 | 18 | ||
| 2025-12-01T00:31 | 17927 | 79 | -79.4 | |||
| 2025-12-01T00:32 | 17994 | 78 | 262 | 13 | ||
| 2025-12-01T00:33 | 18231 | 74 | -78.6 | |||
| 2025-12-01T00:33 | 18247 | 74 | 252 | 12 | ||
| 2025-12-01T00:33 | 18370 | 73 | -77.4 | |||
| 2025-12-01T00:33 | 18379 | 73 | 246 | 8 | ||
| 2025-12-01T00:33 | 18443 | 72 | -75.9 | |||
| 2025-12-01T00:34 | 18524 | 71 | 269 | 9 | ||
| 2025-12-01T00:34 | 18704 | 69 | 268 | 9 | ||
| 2025-12-01T00:34 | 18722 | 68 | -77.2 | |||
| 2025-12-01T00:35 | 18797 | 67 | -76.6 | |||
| 2025-12-01T00:35 | 18900 | 66 | 227 | 6 | ||
| 2025-12-01T00:36 | 19103 | 64 | 235 | 8 | ||
| 2025-12-01T00:36 | 19174 | 63 | -78.6 | |||
| 2025-12-01T00:36 | 19266 | 62 | 237 | 9 | ||
| 2025-12-01T00:37 | 19398 | 61 | 258 | 11 | ||
| 2025-12-01T00:37 | 19454 | 60 | -73.0 | |||
| 2025-12-01T00:38 | 19655 | 58 | 269 | 11 | ||
| 2025-12-01T00:38 | 19777 | 57 | 275 | 12 | ||
| 2025-12-01T00:38 | 19830 | 56 | -70.1 | |||
| 2025-12-01T00:39 | 20009 | 55 | 288 | 14 | ||
| 2025-12-01T00:39 | 20120 | 54 | -70.3 | |||
| 2025-12-01T00:40 | 20301 | 52 | 288 | 11 | ||
| 2025-12-01T00:40 | 20380 | 51 | -67.5 | |||
| 2025-12-01T00:40 | 20426 | 51 | 262 | 5 | ||
| 2025-12-01T00:40 | 20462 | 51 | -66.5 | |||
| 2025-12-01T00:41 | 20560 | 50 | 197 | 5 | ||
| 2025-12-01T00:41 | 20742 | 48 | 192 | 7 | ||
| 2025-12-01T00:42 | 20879 | 47 | 186 | 10 | ||
| 2025-12-01T00:43 | 21099 | 46 | 209 | 9 | ||
| 2025-12-01T00:43 | 21204 | 45 | -69.4 | |||
| 2025-12-01T00:44 | 21408 | 43 | 257 | 8 | ||
| 2025-12-01T00:44 | 21605 | 42 | -65.4 | 298 | 7 | |
| 2025-12-01T00:45 | 21768 | 41 | 276 | 6 | ||
| 2025-12-01T00:45 | 21921 | 40 | -62.0 | |||
| 2025-12-01T00:46 | 22047 | 39 | 324 | 6 | ||
| 2025-12-01T00:46 | 22144 | 38 | 4 | 4 | ||
| 2025-12-01T00:46 | 22227 | 38 | -58.1 | 44 | 3 | |
| 2025-12-01T00:47 | 22447 | 37 | 5 | 4 | ||
| 2025-12-01T00:48 | 22639 | 36 | -58.1 | |||
| 2025-12-01T00:48 | 22655 | 35 | 7 | 4 | ||
| 2025-12-01T00:48 | 22855 | 34 | 95 | 3 | ||
| 2025-12-01T00:49 | 23080 | 33 | 135 | 8 | ||
| 2025-12-01T00:49 | 23192 | 33 | -59.9 | |||
| 2025-12-01T00:50 | 23327 | 32 | 150 | 1 | ||
| 2025-12-01T00:51 | 23550 | 31 | 167 | 8 | ||
| 2025-12-01T00:51 | 23842 | 29 | 198 | 3 | ||
| 2025-12-01T00:52 | 24061 | 28 | 192 | 3 | ||
| 2025-12-01T00:52 | 24150 | 28 | -57.9 | |||
| 2025-12-01T00:53 | 24263 | 27 | 211 | 5 | ||
| 2025-12-01T00:53 | 24452 | 27 | 229 | 6 | ||
| 2025-12-01T00:54 | 24671 | 26 | 281 | 3 | ||
| 2025-12-01T00:55 | 24846 | 25 | -54.8 | |||
| 2025-12-01T00:55 | 24872 | 25 | 211 | 3 | ||
| 2025-12-01T00:56 | 25217 | 24 | 192 | 7 | ||
| 2025-12-01T00:57 | 25552 | 22 | 223 | 6 | ||
| 2025-12-01T00:57 | 25751 | 22 | 259 | 2 | ||
| 2025-12-01T00:58 | 25900 | 21 | 358 | 3 | ||
| 2025-12-01T00:58 | 25929 | 21 | -54.5 | 16 | 3 | |
| 2025-12-01T00:58 | 25990 | 21 | 26 | 4 | ||
| 2025-12-01T00:58 | 26085 | 21 | 10 | 5 | ||
| 2025-12-01T00:59 | 26244 | 20 | 54 | 5 | ||
| 2025-12-01T00:59 | 26306 | 20 | 52 | 6 | ||
| 2025-12-01T00:59 | 26404 | 20 | 66 | 12 | ||
| 2025-12-01T01:00 | 26503 | 19 | -53.5 | |||
| 2025-12-01T01:00 | 26614 | 19 | -53.6 | 67 | 11 | |
| 2025-12-01T11:31 | 8 | 1012 | 23.5 | 21.9 | 70 | 5 |
| 2025-12-01T11:31 | 14 | 1012 | 23.6 | 22.0 | 70 | 1 |
| 2025-12-01T11:31 | 53 | 1007 | 81 | 5 | ||
| 2025-12-01T11:32 | 183 | 992 | 69 | 9 | ||
| 2025-12-01T11:32 | 411 | 967 | 89 | 10 | ||
| 2025-12-01T11:33 | 496 | 957 | 20.2 | 19.7 | ||
| 2025-12-01T11:33 | 573 | 949 | 103 | 10 | ||
| 2025-12-01T11:33 | 702 | 935 | 100 | 8 | ||
| 2025-12-01T11:34 | 912 | 912 | 96 | 7 | ||
| 2025-12-01T11:34 | 928 | 911 | 17.9 | 17.7 | ||
| 2025-12-01T11:35 | 1252 | 877 | 104 | 5 | ||
| 2025-12-01T11:35 | 1320 | 870 | 15.9 | 15.6 | ||
| 2025-12-01T11:36 | 1454 | 856 | 64 | 2 | ||
| 2025-12-01T11:36 | 1703 | 832 | 13.6 | 13.1 | ||
| 2025-12-01T11:37 | 1748 | 827 | 264 | 2 | ||
| 2025-12-01T11:37 | 1806 | 822 | 311 | 4 | ||
| 2025-12-01T11:37 | 1874 | 815 | 12.4 | 10.3 | ||
| 2025-12-01T11:37 | 1995 | 803 | 312 | 4 | ||
| 2025-12-01T11:38 | 2296 | 775 | 0 | 0 | ||
| 2025-12-01T11:39 | 2560 | 751 | 9.8 | 8.2 | ||
| 2025-12-01T11:39 | 2651 | 743 | 256 | 2 | ||
| 2025-12-01T11:40 | 2792 | 730 | 286 | 3 | ||
| 2025-12-01T11:40 | 2903 | 720 | 293 | 5 | ||
| 2025-12-01T11:41 | 3152 | 699 | 6.1 | 4.6 | ||
| 2025-12-01T11:41 | 3251 | 691 | 275 | 12 | ||
| 2025-12-01T11:42 | 3483 | 671 | 275 | 10 | ||
| 2025-12-01T11:42 | 3521 | 668 | 3.2 | 0.3 | ||
| 2025-12-01T11:42 | 3638 | 658 | 2.3 | -3.2 | ||
| 2025-12-01T11:42 | 3674 | 655 | 266 | 18 | ||
| 2025-12-01T11:42 | 3705 | 653 | 1.8 | -11.4 | ||
| 2025-12-01T11:42 | 3741 | 650 | 4.3 | -12.6 | ||
| 2025-12-01T11:43 | 4035 | 627 | 272 | 16 | ||
| 2025-12-01T11:43 | 4131 | 619 | 2.3 | -24.3 | ||
| 2025-12-01T11:44 | 4392 | 600 | 264 | 15 | ||
| 2025-12-01T11:45 | 4618 | 583 | -0.7 | -25.8 | ||
| 2025-12-01T11:45 | 4717 | 576 | 265 | 16 | ||
| 2025-12-01T11:46 | 4977 | 557 | -2.7 | -31.3 | ||
| 2025-12-01T11:46 | 5040 | 553 | 279 | 21 | ||
| 2025-12-01T11:47 | 5372 | 530 | 263 | 20 | ||
| 2025-12-01T11:47 | 5446 | 525 | -5.9 | -33.8 | ||
| 2025-12-01T11:48 | 5611 | 514 | -6.6 | -34.3 | ||
| 2025-12-01T11:48 | 5705 | 508 | 259 | 24 | ||
| 2025-12-01T11:49 | 5996 | 489 | -9.3 | -34.4 | ||
| 2025-12-01T11:49 | 6041 | 487 | 260 | 23 | ||
| 2025-12-01T11:50 | 6148 | 480 | -10.0 | -39.4 | ||
| 2025-12-01T11:50 | 6247 | 474 | -10.5 | -41.3 | ||
| 2025-12-01T11:50 | 6310 | 470 | 277 | 26 | ||
| 2025-12-01T11:50 | 6322 | 469 | -8.4 | -43.6 | ||
| 2025-12-01T11:50 | 6357 | 467 | -7.7 | -43.1 | ||
| 2025-12-01T11:51 | 6653 | 450 | 277 | 27 | ||
| 2025-12-01T11:51 | 6681 | 448 | -9.4 | -39.0 | ||
| 2025-12-01T11:52 | 6991 | 430 | 284 | 28 | ||
| 2025-12-01T11:52 | 7079 | 425 | -11.9 | -40.9 | ||
| 2025-12-01T11:53 | 7309 | 413 | 285 | 34 | ||
| 2025-12-01T11:54 | 7519 | 401 | -14.7 | -37.1 | ||
| 2025-12-01T11:54 | 7658 | 394 | -15.7 | -36.5 | 287 | 38 |
| 2025-12-01T11:54 | 7777 | 388 | -16.4 | -37.7 | ||
| 2025-12-01T11:55 | 7997 | 377 | 281 | 38 | ||
| 2025-12-01T11:55 | 8144 | 369 | -19.1 | -40.0 | ||
| 2025-12-01T11:56 | 8244 | 364 | 278 | 37 | ||
| 2025-12-01T11:56 | 8465 | 354 | -21.3 | -44.0 | ||
| 2025-12-01T11:57 | 8566 | 349 | 278 | 36 | ||
| 2025-12-01T11:58 | 8842 | 336 | 278 | 38 | ||
| 2025-12-01T11:59 | 9125 | 323 | 278 | 34 | ||
| 2025-12-01T12:00 | 9416 | 310 | 282 | 33 | ||
| 2025-12-01T12:00 | 9584 | 303 | -30.6 | -50.8 | ||
| 2025-12-01T12:01 | 9698 | 298 | 280 | 33 | ||
| 2025-12-01T12:02 | 9999 | 286 | 283 | 34 | ||
| 2025-12-01T12:03 | 10298 | 274 | 287 | 36 | ||
| 2025-12-01T12:03 | 10560 | 263 | 289 | 35 | ||
| 2025-12-01T12:04 | 10647 | 260 | -40.0 | -54.8 | ||
| 2025-12-01T12:05 | 10914 | 250 | 298 | 36 | ||
| 2025-12-01T12:05 | 11010 | 247 | -42.2 | |||
| 2025-12-01T12:06 | 11215 | 239 | 296 | 36 | ||
| 2025-12-01T12:07 | 11493 | 230 | 293 | 35 | ||
| 2025-12-01T12:08 | 11760 | 220 | 295 | 36 | ||
| 2025-12-01T12:09 | 12016 | 212 | 297 | 37 | ||
| 2025-12-01T12:09 | 12080 | 210 | -51.0 | |||
| 2025-12-01T12:10 | 12272 | 204 | 296 | 36 | ||
| 2025-12-01T12:11 | 12535 | 196 | 296 | 34 | ||
| 2025-12-01T12:12 | 12802 | 188 | 296 | 34 | ||
| 2025-12-01T12:12 | 12829 | 187 | -56.7 | |||
| 2025-12-01T12:13 | 13105 | 179 | 280 | 33 | ||
| 2025-12-01T12:13 | 13272 | 174 | -59.3 | |||
| 2025-12-01T12:14 | 13477 | 168 | 265 | 35 | ||
| 2025-12-01T12:15 | 13807 | 160 | 257 | 34 | ||
| 2025-12-01T12:16 | 14085 | 153 | 257 | 36 | ||
| 2025-12-01T12:17 | 14378 | 145 | 263 | 39 | ||
| 2025-12-01T12:17 | 14490 | 143 | -69.6 | |||
| 2025-12-01T12:18 | 14670 | 138 | 276 | 42 | ||
| 2025-12-01T12:18 | 14731 | 137 | -69.3 | |||
| 2025-12-01T12:18 | 14791 | 136 | 281 | 38 | ||
| 2025-12-01T12:18 | 14902 | 133 | -67.3 | |||
| 2025-12-01T12:19 | 14992 | 131 | 279 | 28 | ||
| 2025-12-01T12:20 | 15209 | 126 | 267 | 25 | ||
| 2025-12-01T12:20 | 15380 | 123 | -70.0 | |||
| 2025-12-01T12:21 | 15474 | 121 | 270 | 25 | ||
| 2025-12-01T12:22 | 15757 | 115 | 259 | 25 | ||
| 2025-12-01T12:23 | 16043 | 110 | 257 | 27 | ||
| 2025-12-01T12:23 | 16252 | 106 | -76.9 | |||
| 2025-12-01T12:24 | 16323 | 105 | 263 | 28 | ||
| 2025-12-01T12:24 | 16555 | 100 | -76.7 | |||
| 2025-12-01T12:25 | 16615 | 99 | 265 | 26 | ||
| 2025-12-01T12:26 | 16921 | 94 | 270 | 24 | ||
| 2025-12-01T12:27 | 17236 | 89 | 287 | 22 | ||
| 2025-12-01T12:27 | 17260 | 89 | -80.6 | |||
| 2025-12-01T12:28 | 17519 | 85 | 270 | 20 | ||
| 2025-12-01T12:28 | 17634 | 83 | -81.4 | |||
| 2025-12-01T12:28 | 17640 | 83 | 267 | 19 | ||
| 2025-12-01T12:29 | 17757 | 81 | -80.1 | |||
| 2025-12-01T12:29 | 17798 | 81 | 265 | 17 | ||
| 2025-12-01T12:29 | 17827 | 80 | -76.4 | |||
| 2025-12-01T12:29 | 17927 | 79 | -76.2 | |||
| 2025-12-01T12:29 | 18018 | 78 | -75.8 | |||
| 2025-12-01T12:30 | 18092 | 77 | 261 | 15 | ||
| 2025-12-01T12:31 | 18413 | 72 | 241 | 10 | ||
| 2025-12-01T12:31 | 18557 | 71 | -79.7 | |||
| 2025-12-01T12:32 | 18705 | 69 | -78.6 | |||
| 2025-12-01T12:32 | 18720 | 69 | 260 | 12 | ||
| 2025-12-01T12:32 | 18888 | 67 | 278 | 11 | ||
| 2025-12-01T12:33 | 19044 | 65 | -77.8 | |||
| 2025-12-01T12:33 | 19062 | 65 | 274 | 11 | ||
| 2025-12-01T12:33 | 19235 | 63 | -75.4 | |||
| 2025-12-01T12:34 | 19328 | 62 | 285 | 11 | ||
| 2025-12-01T12:34 | 19470 | 60 | 258 | 8 | ||
| 2025-12-01T12:34 | 19540 | 60 | -71.5 | |||
| 2025-12-01T12:35 | 19608 | 59 | 222 | 9 | ||
| 2025-12-01T12:35 | 19822 | 57 | -71.9 | |||
| 2025-12-01T12:36 | 19916 | 56 | 226 | 7 | ||
| 2025-12-01T12:36 | 19994 | 55 | -68.4 | |||
| 2025-12-01T12:37 | 20047 | 55 | 189 | 3 | ||
| 2025-12-01T12:37 | 20121 | 54 | -68.4 | 187 | 5 | |
| 2025-12-02T00:41 | 8 | 1014 | 23.8 | 22.1 | 30 | 4 |
| 2025-12-02T00:41 | 10 | 1014 | 23.6 | 21.7 | 30 | 1 |
| 2025-12-02T00:41 | 18 | 1013 | 44 | 5 | ||
| 2025-12-02T00:42 | 190 | 993 | 31 | 8 | ||
| 2025-12-02T00:42 | 293 | 982 | 21.1 | 20.6 | ||
| 2025-12-02T00:42 | 377 | 972 | 21.1 | 19.6 | ||
| 2025-12-02T00:43 | 502 | 958 | 51 | 7 | ||
| 2025-12-02T00:43 | 772 | 929 | 18.6 | 17.4 | ||
| 2025-12-02T00:43 | 783 | 927 | 41 | 7 | ||
| 2025-12-02T00:44 | 1047 | 900 | 29 | 7 | ||
| 2025-12-02T00:44 | 1078 | 896 | 17.3 | 16.3 | ||
| 2025-12-02T00:45 | 1252 | 878 | 43 | 6 | ||
| 2025-12-02T00:45 | 1258 | 878 | 16.4 | 15.6 | ||
| 2025-12-02T00:45 | 1344 | 869 | 37 | 7 | ||
| 2025-12-02T00:46 | 1456 | 857 | 29 | 5 | ||
| 2025-12-02T00:46 | 1612 | 842 | 14.3 | 13.8 | ||
| 2025-12-02T00:46 | 1669 | 836 | 348 | 4 | ||
| 2025-12-02T00:47 | 1815 | 822 | 290 | 4 | ||
| 2025-12-02T00:47 | 1825 | 821 | 13.9 | 13.0 | ||
| 2025-12-02T00:47 | 1930 | 811 | 283 | 3 | ||
| 2025-12-02T00:47 | 2015 | 803 | 264 | 3 | ||
| 2025-12-02T00:48 | 2111 | 794 | 286 | 5 | ||
| 2025-12-02T00:48 | 2148 | 790 | 12.1 | 11.2 | ||
| 2025-12-02T00:48 | 2256 | 780 | 11.6 | 10.0 | ||
| 2025-12-02T00:48 | 2306 | 775 | 265 | 4 | ||
| 2025-12-02T00:48 | 2388 | 768 | 268 | 6 | ||
| 2025-12-02T00:49 | 2533 | 754 | 9.7 | 7.8 | ||
| 2025-12-02T00:49 | 2586 | 750 | 262 | 8 | ||
| 2025-12-02T00:50 | 2764 | 734 | 9.0 | 1.9 | ||
| 2025-12-02T00:50 | 2921 | 720 | 274 | 13 | ||
| 2025-12-02T00:50 | 2999 | 713 | 7.4 | -0.3 | ||
| 2025-12-02T00:50 | 3085 | 706 | 6.6 | 0.9 | ||
| 2025-12-02T00:51 | 3203 | 696 | 6.1 | -0.6 | ||
| 2025-12-02T00:51 | 3229 | 693 | 266 | 16 | ||
| 2025-12-02T00:51 | 3258 | 691 | 5.8 | -2.1 | ||
| 2025-12-02T00:52 | 3411 | 678 | 5.5 | -13.5 | ||
| 2025-12-02T00:52 | 3416 | 678 | 267 | 14 | ||
| 2025-12-02T00:52 | 3491 | 672 | 5.6 | -18.3 | ||
| 2025-12-02T00:52 | 3564 | 666 | 5.4 | -23.9 | 279 | 11 |
| 2025-12-02T00:53 | 3705 | 654 | 4.7 | -30.0 | ||
| 2025-12-02T00:53 | 3771 | 649 | 261 | 9 | ||
| 2025-12-02T00:53 | 3776 | 649 | 5.0 | -25.3 | ||
| 2025-12-02T00:54 | 4067 | 626 | 3.0 | -31.2 | ||
| 2025-12-02T00:54 | 4082 | 625 | 257 | 8 | ||
| 2025-12-02T00:54 | 4185 | 617 | 1.9 | -25.5 | ||
| 2025-12-02T00:54 | 4288 | 609 | 1.0 | -17.8 | ||
| 2025-12-02T00:55 | 4367 | 603 | 0.5 | -15.1 | ||
| 2025-12-02T00:55 | 4389 | 601 | 282 | 6 | ||
| 2025-12-02T00:55 | 4411 | 600 | 0.7 | -6.6 | ||
| 2025-12-02T00:55 | 4595 | 586 | 281 | 3 | ||
| 2025-12-02T00:55 | 4601 | 586 | -0.8 | -3.0 | ||
| 2025-12-02T00:55 | 4672 | 580 | 344 | 1 | ||
| 2025-12-02T00:56 | 4683 | 580 | -0.8 | -2.5 | ||
| 2025-12-02T00:56 | 4746 | 575 | 36 | 3 | ||
| 2025-12-02T00:56 | 4758 | 574 | -0.1 | -3.3 | ||
| 2025-12-02T00:56 | 4839 | 568 | 47 | 1 | ||
| 2025-12-02T00:56 | 4883 | 565 | -0.6 | -4.5 | ||
| 2025-12-02T00:57 | 5073 | 552 | -2.3 | -3.9 | ||
| 2025-12-02T00:57 | 5171 | 545 | 102 | 3 | ||
| 2025-12-02T00:58 | 5399 | 530 | 107 | 3 | ||
| 2025-12-02T00:58 | 5424 | 528 | -4.7 | -4.7 | ||
| 2025-12-02T00:58 | 5485 | 524 | -4.8 | -5.2 | ||
| 2025-12-02T00:58 | 5533 | 521 | -4.5 | -9.1 | ||
| 2025-12-02T00:58 | 5563 | 519 | 242 | 3 | ||
| 2025-12-02T00:58 | 5662 | 512 | -5.1 | -13.0 | ||
| 2025-12-02T00:58 | 5709 | 509 | 283 | 5 | ||
| 2025-12-02T00:59 | 5810 | 503 | -5.9 | -18.3 | ||
| 2025-12-02T00:59 | 5894 | 497 | -5.3 | -32.2 | ||
| 2025-12-02T00:59 | 5922 | 496 | 277 | 10 | ||
| 2025-12-02T01:00 | 6059 | 487 | -6.1 | -38.0 | ||
| 2025-12-02T01:00 | 6236 | 476 | 265 | 14 | ||
| 2025-12-02T01:00 | 6297 | 472 | -7.4 | -45.5 | ||
| 2025-12-02T01:01 | 6573 | 456 | 269 | 16 | ||
| 2025-12-02T01:01 | 6601 | 454 | -9.6 | -50.6 | ||
| 2025-12-02T01:02 | 6789 | 443 | 272 | 20 | ||
| 2025-12-02T01:03 | 7101 | 426 | 269 | 21 | ||
| 2025-12-02T01:03 | 7322 | 413 | -13.7 | -53.4 | ||
| 2025-12-02T01:04 | 7440 | 407 | 280 | 26 | ||
| 2025-12-02T01:04 | 7463 | 406 | -14.4 | -41.6 | ||
| 2025-12-02T01:04 | 7542 | 401 | -14.7 | -30.8 | ||
| 2025-12-02T01:05 | 7792 | 388 | 273 | 26 | ||
| 2025-12-02T01:05 | 7962 | 380 | -18.7 | -30.7 | ||
| 2025-12-02T01:06 | 8076 | 374 | -19.5 | -32.0 | ||
| 2025-12-02T01:06 | 8125 | 371 | 275 | 29 | ||
| 2025-12-02T01:06 | 8131 | 371 | -19.2 | -39.4 | ||
| 2025-12-02T01:06 | 8261 | 365 | -20.4 | -35.0 | ||
| 2025-12-02T01:06 | 8343 | 361 | -20.6 | -40.5 | ||
| 2025-12-02T01:07 | 8452 | 355 | 270 | 28 | ||
| 2025-12-02T01:07 | 8469 | 355 | -21.5 | -39.0 | ||
| 2025-12-02T01:07 | 8637 | 347 | -22.6 | -45.9 | ||
| 2025-12-02T01:08 | 8780 | 340 | 268 | 31 | ||
| 2025-12-02T01:08 | 8846 | 337 | -24.3 | -40.9 | ||
| 2025-12-02T01:09 | 9113 | 324 | 276 | 30 | ||
| 2025-12-02T01:10 | 9445 | 310 | 278 | 31 | ||
| 2025-12-02T01:10 | 9504 | 307 | -30.3 | -42.0 | ||
| 2025-12-02T01:11 | 9743 | 297 | 281 | 33 | ||
| 2025-12-02T01:11 | 9927 | 289 | -34.2 | -44.4 | ||
| 2025-12-02T01:12 | 10000 | 286 | 285 | 33 | ||
| 2025-12-02T01:12 | 10215 | 278 | -36.7 | -47.2 | ||
| 2025-12-02T01:13 | 10281 | 275 | 284 | 33 | ||
| 2025-12-02T01:13 | 10358 | 272 | -37.7 | -48.9 | ||
| 2025-12-02T01:14 | 10544 | 265 | 286 | 33 | ||
| 2025-12-02T01:14 | 10643 | 261 | -39.6 | -53.6 | ||
| 2025-12-02T01:14 | 10681 | 259 | -40.0 | -53.6 | ||
| 2025-12-02T01:15 | 10833 | 254 | 288 | 33 | ||
| 2025-12-02T01:16 | 11106 | 244 | -43.5 | |||
| 2025-12-02T01:16 | 11158 | 242 | 288 | 36 | ||
| 2025-12-02T01:17 | 11468 | 231 | 288 | 35 | ||
| 2025-12-02T01:18 | 11738 | 222 | -48.2 | |||
| 2025-12-02T01:18 | 11752 | 221 | 289 | 38 | ||
| 2025-12-02T01:19 | 12026 | 212 | 288 | 36 | ||
| 2025-12-02T01:20 | 12316 | 203 | 286 | 33 | ||
| 2025-12-02T01:20 | 12341 | 202 | -52.7 | |||
| 2025-12-02T01:21 | 12611 | 194 | -53.5 | |||
| 2025-12-02T01:21 | 12693 | 191 | 279 | 28 | ||
| 2025-12-02T01:22 | 13107 | 179 | 263 | 27 | ||
| 2025-12-02T01:22 | 13221 | 176 | 259 | 28 | ||
| 2025-12-02T01:23 | 13508 | 168 | -61.4 | |||
| 2025-12-02T01:23 | 13584 | 166 | 253 | 33 | ||
| 2025-12-02T01:24 | 13845 | 159 | 256 | 34 | ||
| 2025-12-02T01:25 | 14114 | 152 | 261 | 34 | ||
| 2025-12-02T01:26 | 14382 | 146 | 267 | 34 | ||
| 2025-12-02T01:27 | 14654 | 139 | 272 | 37 | ||
| 2025-12-02T01:27 | 14669 | 139 | -69.9 | |||
| 2025-12-02T01:28 | 14893 | 134 | 284 | 32 | ||
| 2025-12-02T01:28 | 14913 | 133 | -68.9 | |||
| 2025-12-02T01:28 | 15005 | 131 | -68.4 | |||
| 2025-12-02T01:29 | 15190 | 127 | 287 | 22 | ||
| 2025-12-02T01:30 | 15394 | 123 | -69.3 | |||
| 2025-12-02T01:30 | 15465 | 121 | 282 | 18 | ||
| 2025-12-02T01:31 | 15778 | 115 | 277 | 15 | ||
| 2025-12-02T01:32 | 16087 | 109 | 268 | 13 | ||
| 2025-12-02T01:33 | 16385 | 104 | 262 | 16 | ||
| 2025-12-02T01:33 | 16595 | 100 | -79.2 | |||
| 2025-12-02T01:34 | 16684 | 98 | 246 | 16 | ||
| 2025-12-02T01:34 | 16765 | 97 | -80.2 | |||
| 2025-12-02T01:34 | 16879 | 95 | 250 | 19 | ||
| 2025-12-02T01:35 | 17138 | 91 | -82.4 | |||
| 2025-12-02T01:35 | 17181 | 90 | 266 | 20 | ||
| 2025-12-02T01:36 | 17474 | 86 | 272 | 14 | ||
| 2025-12-02T01:37 | 17746 | 81 | -82.1 | |||
| 2025-12-02T01:37 | 17754 | 81 | 275 | 18 | ||
| 2025-12-02T01:38 | 17886 | 79 | -80.5 | |||
| 2025-12-02T01:38 | 18037 | 77 | 257 | 18 | ||
| 2025-12-02T01:39 | 18096 | 77 | -79.7 | |||
| 2025-12-02T01:39 | 18330 | 73 | 264 | 17 | ||
| 2025-12-02T01:40 | 18422 | 72 | -80.4 | |||
| 2025-12-02T01:40 | 18518 | 71 | 273 | 13 | ||
| 2025-12-02T01:40 | 18542 | 71 | -79.4 | |||
| 2025-12-02T01:41 | 18812 | 67 | 282 | 12 | ||
| 2025-12-02T01:41 | 18837 | 67 | -78.4 | |||
| 2025-12-02T01:42 | 19037 | 65 | -76.8 | |||
| 2025-12-02T01:42 | 19111 | 64 | 264 | 5 | ||
| 2025-12-02T01:43 | 19266 | 62 | 259 | 5 | ||
| 2025-12-02T01:43 | 19303 | 62 | -73.7 | |||
| 2025-12-02T01:43 | 19448 | 60 | 199 | 6 | ||
| 2025-12-02T01:44 | 19748 | 57 | 228 | 7 | ||
| 2025-12-02T01:44 | 19767 | 57 | -72.9 | |||
| 2025-12-02T01:45 | 19871 | 56 | -72.1 | |||
| 2025-12-02T01:45 | 19931 | 56 | 216 | 9 | ||
| 2025-12-02T01:45 | 20051 | 55 | -72.2 | |||
| 2025-12-02T01:46 | 20253 | 53 | -67.9 | 260 | 8 | |
| 2025-12-02T01:47 | 20563 | 50 | 260 | 6 | ||
| 2025-12-02T01:47 | 20590 | 50 | -66.4 | |||
| 2025-12-02T01:47 | 20777 | 48 | 301 | 6 | ||
| 2025-12-02T01:48 | 20880 | 48 | 262 | 3 | ||
| 2025-12-02T01:48 | 20958 | 47 | 217 | 3 | ||
| 2025-12-02T01:48 | 20985 | 47 | -61.9 | |||
| 2025-12-02T01:49 | 21255 | 45 | 207 | 5 | ||
| 2025-12-02T01:50 | 21492 | 43 | 245 | 5 | ||
| 2025-12-02T01:50 | 21740 | 41 | 306 | 2 | ||
| 2025-12-02T01:50 | 21754 | 41 | -64.6 | |||
| 2025-12-02T01:51 | 21889 | 40 | 271 | 2 | ||
| 2025-12-02T01:51 | 22012 | 40 | 188 | 3 | ||
| 2025-12-02T01:51 | 22044 | 39 | -62.6 | |||
| 2025-12-02T01:52 | 22220 | 38 | 200 | 3 | ||
| 2025-12-02T01:52 | 22420 | 37 | 185 | 3 | ||
| 2025-12-02T01:53 | 22472 | 37 | -59.2 | |||
| 2025-12-02T01:53 | 22572 | 36 | 202 | 6 | ||
| 2025-12-02T01:53 | 22734 | 35 | 202 | 4 | ||
| 2025-12-02T01:54 | 22878 | 34 | 184 | 1 | ||
| 2025-12-02T01:54 | 23066 | 33 | -56.6 | |||
| 2025-12-02T01:55 | 23242 | 33 | 356 | 2 | ||
| 2025-12-02T01:56 | 23481 | 31 | 6 | 4 | ||
| 2025-12-02T01:56 | 23500 | 31 | 16 | 3 | ||
| 2025-12-02T01:56 | 23563 | 31 | 115 | 3 | ||
| 2025-12-02T01:56 | 23647 | 31 | 116 | 3 | ||
| 2025-12-02T01:56 | 23727 | 30 | 93 | 2 | ||
| 2025-12-02T01:57 | 23818 | 30 | 144 | 4 | ||
| 2025-12-02T01:57 | 24014 | 29 | 126 | 7 | ||
| 2025-12-02T01:58 | 24189 | 28 | -55.7 | |||
| 2025-12-02T01:58 | 24214 | 28 | 132 | 6 | ||
| 2025-12-02T01:58 | 24330 | 27 | 137 | 6 | ||
| 2025-12-02T01:59 | 24611 | 26 | 171 | 9 | ||
| 2025-12-02T02:00 | 24809 | 25 | 164 | 8 | ||
| 2025-12-02T02:00 | 25117 | 24 | 123 | 5 | ||
| 2025-12-02T02:01 | 25464 | 23 | 143 | 4 | ||
| 2025-12-02T02:02 | 25610 | 22 | -56.2 | |||
| 2025-12-02T02:02 | 25811 | 22 | 159 | 5 | ||
| 2025-12-02T02:03 | 25961 | 21 | 141 | 4 | ||
| 2025-12-02T02:04 | 26175 | 21 | -53.3 | |||
| 2025-12-02T02:04 | 26267 | 20 | 110 | 3 | ||
| 2025-12-02T02:04 | 26395 | 20 | 95 | 2 | ||
| 2025-12-02T02:04 | 26495 | 20 | 66 | 3 | ||
| 2025-12-02T02:05 | 26845 | 19 | -53.8 | 83 | 6 | |
| 2025-12-02T11:31 | 8 | 1015 | 22.9 | 18.9 | 20 | 5 |
| 2025-12-02T11:31 | 13 | 1014 | 22.9 | 19.1 | 20 | 2 |
| 2025-12-02T11:31 | 35 | 1012 | 59 | 3 | ||
| 2025-12-02T11:31 | 83 | 1006 | 23 | 7 | ||
| 2025-12-02T11:32 | 298 | 982 | 21.0 | 17.6 | ||
| 2025-12-02T11:32 | 437 | 966 | 25 | 12 | ||
| 2025-12-02T11:33 | 766 | 930 | 30 | 11 | ||
| 2025-12-02T11:33 | 845 | 921 | 16.7 | 15.1 | ||
| 2025-12-02T11:34 | 913 | 914 | 16.7 | 14.2 | ||
| 2025-12-02T11:34 | 1096 | 894 | 30 | 7 | ||
| 2025-12-02T11:35 | 1191 | 885 | 15.5 | 10.7 | ||
| 2025-12-02T11:35 | 1317 | 872 | 24 | 5 | ||
| 2025-12-02T11:36 | 1529 | 850 | 359 | 4 | ||
| 2025-12-02T11:36 | 1677 | 835 | 345 | 5 | ||
| 2025-12-02T11:36 | 1774 | 826 | 11.2 | 8.8 | ||
| 2025-12-02T11:36 | 1790 | 824 | 339 | 6 | ||
| 2025-12-02T11:37 | 1910 | 812 | 10.5 | 6.6 | ||
| 2025-12-02T11:37 | 1975 | 806 | 10.4 | 4.1 | ||
| 2025-12-02T11:37 | 1980 | 805 | 342 | 7 | ||
| 2025-12-02T11:38 | 2251 | 779 | 9.4 | 2.9 | ||
| 2025-12-02T11:38 | 2285 | 776 | 305 | 11 | ||
| 2025-12-02T11:38 | 2352 | 770 | 9.2 | 5.0 | ||
| 2025-12-02T11:38 | 2466 | 760 | 8.6 | 6.2 | ||
| 2025-12-02T11:39 | 2567 | 750 | 279 | 7 | ||
| 2025-12-02T11:39 | 2662 | 742 | 7.9 | 5.4 | ||
| 2025-12-02T11:39 | 2833 | 727 | 8.1 | 3.2 | ||
| 2025-12-02T11:40 | 2911 | 720 | 266 | 14 | ||
| 2025-12-02T11:40 | 3043 | 708 | 6.6 | 2.5 | ||
| 2025-12-02T11:40 | 3075 | 706 | 266 | 12 | ||
| 2025-12-02T11:41 | 3280 | 688 | 4.7 | 1.5 | ||
| 2025-12-02T11:41 | 3359 | 681 | 4.6 | -0.8 | ||
| 2025-12-02T11:41 | 3415 | 677 | 5.8 | -7.8 | ||
| 2025-12-02T11:41 | 3427 | 676 | 266 | 13 | ||
| 2025-12-02T11:42 | 3562 | 665 | 5.7 | -12.3 | ||
| 2025-12-02T11:42 | 3631 | 659 | 5.8 | -18.1 | ||
| 2025-12-02T11:42 | 3737 | 651 | 5.6 | -27.6 | ||
| 2025-12-02T11:42 | 3775 | 648 | 250 | 15 | ||
| 2025-12-02T11:42 | 3797 | 646 | 5.4 | -20.0 | ||
| 2025-12-02T11:43 | 4025 | 628 | 4.8 | -29.9 | ||
| 2025-12-02T11:43 | 4096 | 623 | 261 | 18 | ||
| 2025-12-02T11:44 | 4379 | 601 | 272 | 20 | ||
| 2025-12-02T11:44 | 4420 | 598 | 1.7 | -39.1 | ||
| 2025-12-02T11:44 | 4552 | 588 | 1.6 | -39.2 | ||
| 2025-12-02T11:45 | 4729 | 576 | 0.3 | -43.9 | ||
| 2025-12-02T11:45 | 4734 | 575 | 266 | 19 | ||
| 2025-12-02T11:46 | 5031 | 554 | -0.8 | -44.7 | ||
| 2025-12-02T11:46 | 5076 | 551 | 262 | 19 | ||
| 2025-12-02T11:47 | 5332 | 534 | 261 | 20 | ||
| 2025-12-02T11:47 | 5429 | 527 | -2.0 | -51.6 | ||
| 2025-12-02T11:47 | 5505 | 522 | -1.6 | -51.3 | ||
| 2025-12-02T11:48 | 5638 | 513 | 262 | 22 | ||
| 2025-12-02T11:48 | 5701 | 509 | -1.8 | -34.8 | ||
| 2025-12-02T11:49 | 5975 | 492 | 259 | 21 | ||
| 2025-12-02T11:49 | 6067 | 486 | -5.1 | -32.1 | ||
| 2025-12-02T11:50 | 6278 | 473 | 260 | 21 | ||
| 2025-12-02T11:50 | 6455 | 463 | -7.7 | -29.9 | ||
| 2025-12-02T11:51 | 6567 | 456 | -7.9 | -41.1 | 257 | 23 |
| 2025-12-02T11:51 | 6649 | 451 | -8.6 | -27.0 | ||
| 2025-12-02T11:52 | 6894 | 437 | 258 | 23 | ||
| 2025-12-02T11:52 | 6929 | 435 | -10.6 | -33.0 | ||
| 2025-12-02T11:52 | 6992 | 432 | -11.2 | -22.7 | ||
| 2025-12-02T11:53 | 7183 | 421 | -12.8 | -21.1 | ||
| 2025-12-02T11:53 | 7199 | 420 | 265 | 23 | ||
| 2025-12-02T11:53 | 7416 | 408 | -14.2 | -23.6 | ||
| 2025-12-02T11:54 | 7534 | 402 | -14.5 | -28.3 | ||
| 2025-12-02T11:54 | 7546 | 401 | 265 | 26 | ||
| 2025-12-02T11:54 | 7799 | 388 | -16.4 | -34.2 | ||
| 2025-12-02T11:55 | 7898 | 383 | 264 | 26 | ||
| 2025-12-02T11:55 | 7985 | 379 | -18.0 | -36.1 | ||
| 2025-12-02T11:55 | 8189 | 368 | -19.6 | -32.8 | ||
| 2025-12-02T11:56 | 8258 | 365 | 272 | 24 | ||
| 2025-12-02T11:57 | 8574 | 350 | 275 | 25 | ||
| 2025-12-02T11:57 | 8670 | 345 | -23.4 | -38.8 | ||
| 2025-12-02T11:58 | 8884 | 335 | 274 | 26 | ||
| 2025-12-02T11:59 | 9140 | 323 | 276 | 26 | ||
| 2025-12-02T11:59 | 9237 | 319 | -27.4 | -45.1 | ||
| 2025-12-02T12:00 | 9432 | 311 | 271 | 28 | ||
| 2025-12-02T12:00 | 9662 | 301 | -30.7 | -46.8 | ||
| 2025-12-02T12:01 | 9710 | 299 | 268 | 30 | ||
| 2025-12-02T12:02 | 9971 | 288 | 267 | 28 | ||
| 2025-12-02T12:03 | 10248 | 277 | 268 | 28 | ||
| 2025-12-02T12:04 | 10521 | 266 | 268 | 28 | ||
| 2025-12-02T12:04 | 10682 | 260 | -40.0 | -52.2 | ||
| 2025-12-02T12:05 | 10782 | 256 | 268 | 27 | ||
| 2025-12-02T12:06 | 11039 | 246 | 270 | 29 | ||
| 2025-12-02T12:07 | 11313 | 236 | 273 | 28 | ||
| 2025-12-02T12:08 | 11598 | 227 | 280 | 29 | ||
| 2025-12-02T12:09 | 11828 | 219 | -48.2 | |||
| 2025-12-02T12:09 | 11863 | 218 | 276 | 30 | ||
| 2025-12-02T12:10 | 12132 | 209 | 277 | 31 | ||
| 2025-12-02T12:11 | 12407 | 200 | 275 | 32 | ||
| 2025-12-02T12:12 | 12682 | 192 | 276 | 31 | ||
| 2025-12-02T12:13 | 12955 | 184 | 273 | 32 | ||
| 2025-12-02T12:14 | 13188 | 177 | -59.6 | |||
| 2025-12-02T12:14 | 13223 | 176 | 267 | 32 | ||
| 2025-12-02T12:15 | 13485 | 169 | 266 | 33 | ||
| 2025-12-02T12:16 | 13734 | 162 | 264 | 33 | ||
| 2025-12-02T12:16 | 13827 | 160 | -64.0 | |||
| 2025-12-02T12:17 | 14001 | 155 | 278 | 37 | ||
| 2025-12-02T12:17 | 14064 | 154 | -65.1 | |||
| 2025-12-02T12:18 | 14269 | 148 | 285 | 37 | ||
| 2025-12-02T12:19 | 14508 | 143 | -67.5 | |||
| 2025-12-02T12:19 | 14547 | 142 | 286 | 34 | ||
| 2025-12-02T12:20 | 14838 | 135 | 288 | 31 | ||
| 2025-12-02T12:20 | 14885 | 134 | -68.8 | |||
| 2025-12-02T12:21 | 15110 | 129 | 286 | 28 | ||
| 2025-12-02T12:22 | 15359 | 124 | 283 | 27 | ||
| 2025-12-02T12:22 | 15477 | 121 | -72.9 | |||
| 2025-12-02T12:23 | 15630 | 118 | 276 | 19 | ||
| 2025-12-02T12:23 | 15686 | 117 | -73.0 | |||
| 2025-12-02T12:23 | 15850 | 114 | 263 | 17 | ||
| 2025-12-02T12:24 | 16182 | 108 | 246 | 16 | ||
| 2025-12-02T12:25 | 16464 | 102 | 240 | 18 | ||
| 2025-12-02T12:26 | 16587 | 100 | -81.2 | |||
| 2025-12-02T12:26 | 16698 | 98 | -81.7 | |||
| 2025-12-02T12:26 | 16739 | 97 | 245 | 22 | ||
| 2025-12-02T12:27 | 16994 | 93 | 258 | 19 | ||
| 2025-12-02T12:28 | 17123 | 91 | -81.3 | |||
| 2025-12-02T12:28 | 17275 | 89 | -81.2 | |||
| 2025-12-02T12:28 | 17288 | 88 | 241 | 16 | ||
| 2025-12-02T12:29 | 17566 | 84 | -81.9 | |||
| 2025-12-02T12:29 | 17594 | 84 | 238 | 17 | ||
| 2025-12-02T12:30 | 17888 | 79 | 241 | 18 | ||
| 2025-12-02T12:30 | 17910 | 79 | -81.8 | |||
| 2025-12-02T12:31 | 18120 | 76 | -80.3 | |||
| 2025-12-02T12:31 | 18135 | 76 | 262 | 19 | ||
| 2025-12-02T12:32 | 18412 | 72 | 267 | 14 | ||
| 2025-12-02T12:33 | 18639 | 70 | -76.7 | |||
| 2025-12-02T12:33 | 18707 | 69 | 265 | 13 | ||
| 2025-12-02T12:34 | 18973 | 66 | 256 | 13 | ||
| 2025-12-02T12:35 | 19071 | 65 | -73.9 | |||
| 2025-12-02T12:35 | 19146 | 64 | 249 | 13 | ||
| 2025-12-02T12:35 | 19210 | 63 | -71.9 | |||
| 2025-12-02T12:35 | 19286 | 62 | 252 | 13 | ||
| 2025-12-02T12:36 | 19480 | 60 | -70.7 | |||
| 2025-12-02T12:36 | 19588 | 59 | 245 | 10 | ||
| 2025-12-02T12:37 | 19679 | 58 | -69.8 | |||
| 2025-12-02T12:37 | 19790 | 57 | -67.9 | |||
| 2025-12-02T12:37 | 19886 | 56 | 250 | 9 | ||
| 2025-12-02T12:38 | 20056 | 55 | -68.2 | |||
| 2025-12-02T12:38 | 20067 | 55 | 260 | 8 | ||
| 2025-12-02T12:39 | 20112 | 54 | 297 | 6 | ||
| 2025-12-02T12:39 | 20138 | 54 | -67.4 | 298 | 3 | |
| 2025-12-02T23:31 | 8 | 1019 | 21.2 | 14.6 | 20 | 7 |
| 2025-12-02T23:31 | 11 | 1018 | 21.2 | 14.8 | 36 | 1 |
| 2025-12-02T23:31 | 35 | 1016 | 17 | 4 | ||
| 2025-12-02T23:31 | 102 | 1008 | 20.2 | 14.3 | ||
| 2025-12-02T23:31 | 146 | 1003 | 30 | 10 | ||
| 2025-12-02T23:32 | 385 | 975 | 15 | 13 | ||
| 2025-12-02T23:33 | 629 | 948 | 15.3 | 12.6 | ||
| 2025-12-02T23:33 | 688 | 941 | 21 | 17 | ||
| 2025-12-02T23:34 | 911 | 916 | 20 | 15 | ||
| 2025-12-02T23:35 | 1213 | 884 | 10.7 | 10.2 | ||
| 2025-12-02T23:35 | 1223 | 883 | 22 | 13 | ||
| 2025-12-02T23:36 | 1443 | 860 | 11 | 9 | ||
| 2025-12-02T23:36 | 1665 | 837 | 8.4 | 7.8 | ||
| 2025-12-02T23:36 | 1680 | 836 | 342 | 10 | ||
| 2025-12-02T23:37 | 1759 | 828 | 9.0 | 6.1 | ||
| 2025-12-02T23:37 | 1839 | 820 | 11.5 | 5.6 | ||
| 2025-12-02T23:37 | 1972 | 807 | 322 | 11 | ||
| 2025-12-02T23:38 | 2016 | 803 | 11.6 | 3.1 | ||
| 2025-12-02T23:38 | 2119 | 793 | 315 | 9 | ||
| 2025-12-02T23:39 | 2361 | 770 | 307 | 10 | ||
| 2025-12-02T23:39 | 2422 | 764 | 8.1 | 1.7 | ||
| 2025-12-02T23:40 | 2700 | 739 | 313 | 9 | ||
| 2025-12-02T23:40 | 2740 | 735 | 5.5 | 1.2 | ||
| 2025-12-02T23:40 | 2809 | 729 | 5.3 | 1.6 | ||
| 2025-12-02T23:41 | 2994 | 713 | 295 | 9 | ||
| 2025-12-02T23:41 | 3251 | 691 | 1.9 | 0.7 | ||
| 2025-12-02T23:42 | 3331 | 684 | 289 | 7 | ||
| 2025-12-02T23:42 | 3414 | 677 | 1.5 | 0.3 | ||
| 2025-12-02T23:43 | 3656 | 657 | 286 | 13 | ||
| 2025-12-02T23:43 | 3683 | 655 | -0.2 | -0.8 | ||
| 2025-12-02T23:44 | 3974 | 631 | 288 | 15 | ||
| 2025-12-02T23:44 | 4016 | 628 | -2.7 | -3.4 | ||
| 2025-12-02T23:44 | 4262 | 609 | -3.6 | -4.3 | ||
| 2025-12-02T23:45 | 4282 | 607 | 294 | 14 | ||
| 2025-12-02T23:45 | 4313 | 605 | -2.7 | -6.2 | ||
| 2025-12-02T23:45 | 4368 | 601 | 296 | 19 | ||
| 2025-12-02T23:45 | 4394 | 599 | 0.0 | -12.0 | ||
| 2025-12-02T23:45 | 4437 | 596 | 3.2 | -19.5 | ||
| 2025-12-02T23:45 | 4448 | 595 | 287 | 25 | ||
| 2025-12-02T23:45 | 4542 | 588 | 4.3 | -25.9 | ||
| 2025-12-02T23:46 | 4617 | 583 | 4.4 | -16.6 | ||
| 2025-12-02T23:46 | 4762 | 572 | 274 | 25 | ||
| 2025-12-02T23:47 | 5105 | 548 | 265 | 25 | ||
| 2025-12-02T23:47 | 5117 | 548 | 1.2 | -19.3 | ||
| 2025-12-02T23:48 | 5398 | 529 | -1.0 | -23.7 | ||
| 2025-12-02T23:48 | 5444 | 526 | 271 | 25 | ||
| 2025-12-02T23:48 | 5592 | 516 | -2.3 | -21.2 | ||
| 2025-12-02T23:49 | 5680 | 510 | -2.7 | -22.6 | ||
| 2025-12-02T23:49 | 5798 | 503 | 268 | 26 | ||
| 2025-12-02T23:49 | 5803 | 503 | -3.0 | -32.7 | ||
| 2025-12-02T23:50 | 6054 | 487 | -4.0 | -38.2 | ||
| 2025-12-02T23:50 | 6148 | 481 | 267 | 29 | ||
| 2025-12-02T23:51 | 6481 | 461 | 264 | 29 | ||
| 2025-12-02T23:52 | 6650 | 451 | -8.4 | -38.2 | ||
| 2025-12-02T23:52 | 6811 | 442 | 270 | 29 | ||
| 2025-12-02T23:53 | 7094 | 426 | -12.3 | -39.9 | ||
| 2025-12-02T23:53 | 7131 | 424 | 267 | 29 | ||
| 2025-12-02T23:54 | 7382 | 410 | -13.9 | -47.6 | ||
| 2025-12-02T23:54 | 7456 | 406 | 265 | 30 | ||
| 2025-12-02T23:55 | 7697 | 393 | -15.4 | -51.2 | ||
| 2025-12-02T23:55 | 7799 | 388 | 271 | 32 | ||
| 2025-12-02T23:56 | 8101 | 373 | 271 | 32 | ||
| 2025-12-02T23:56 | 8247 | 366 | -19.7 | -54.2 | ||
| 2025-12-02T23:57 | 8457 | 355 | 277 | 32 | ||
| 2025-12-02T23:57 | 8462 | 355 | -21.2 | -51.0 | ||
| 2025-12-02T23:58 | 8729 | 342 | -23.4 | -49.8 | ||
| 2025-12-02T23:58 | 8779 | 340 | 275 | 32 | ||
| 2025-12-02T23:59 | 9098 | 325 | 271 | 34 | ||
| 2025-12-02T23:59 | 9181 | 322 | -26.5 | -53.5 | ||
| 2025-12-03T00:00 | 9413 | 312 | 270 | 34 | ||
| 2025-12-03T00:01 | 9672 | 301 | 271 | 33 | ||
| 2025-12-03T00:02 | 9923 | 290 | 272 | 33 | ||
| 2025-12-03T00:02 | 10002 | 287 | -34.3 | -54.6 | ||
| 2025-12-03T00:03 | 10175 | 280 | 274 | 32 | ||
| 2025-12-03T00:04 | 10446 | 269 | 278 | 32 | ||
| 2025-12-03T00:05 | 10754 | 257 | -39.7 | -57.1 | ||
| 2025-12-03T00:05 | 10764 | 257 | 274 | 30 | ||
| 2025-12-03T00:05 | 10809 | 255 | -40.0 | -57.9 | ||
| 2025-12-03T00:06 | 11059 | 246 | 268 | 31 | ||
| 2025-12-03T00:07 | 11382 | 234 | 269 | 33 | ||
| 2025-12-03T00:08 | 11674 | 224 | 267 | 34 | ||
| 2025-12-03T00:09 | 11817 | 220 | -48.8 | |||
| 2025-12-03T00:09 | 11955 | 215 | 265 | 34 | ||
| 2025-12-03T00:10 | 12231 | 206 | 269 | 34 | ||
| 2025-12-03T00:11 | 12511 | 197 | 270 | 35 | ||
| 2025-12-03T00:12 | 12791 | 189 | 268 | 35 | ||
| 2025-12-03T00:13 | 13067 | 181 | 271 | 37 | ||
| 2025-12-03T00:13 | 13188 | 177 | -60.1 | |||
| 2025-12-03T00:14 | 13336 | 173 | 269 | 36 | ||
| 2025-12-03T00:15 | 13467 | 169 | -61.4 | |||
| 2025-12-03T00:15 | 13597 | 166 | 267 | 35 | ||
| 2025-12-03T00:16 | 13863 | 159 | 267 | 33 | ||
| 2025-12-03T00:17 | 14139 | 152 | 267 | 30 | ||
| 2025-12-03T00:18 | 14440 | 145 | 272 | 28 | ||
| 2025-12-03T00:19 | 14664 | 139 | -68.5 | |||
| 2025-12-03T00:19 | 14758 | 137 | 282 | 28 | ||
| 2025-12-03T00:20 | 14970 | 132 | -70.4 | |||
| 2025-12-03T00:20 | 14982 | 132 | 283 | 25 | ||
| 2025-12-03T00:20 | 15180 | 128 | 273 | 20 | ||
| 2025-12-03T00:21 | 15366 | 124 | -72.6 | |||
| 2025-12-03T00:21 | 15664 | 118 | 240 | 21 | ||
| 2025-12-03T00:22 | 15932 | 112 | 234 | 23 | ||
| 2025-12-03T00:22 | 16085 | 109 | -78.5 | |||
| 2025-12-03T00:23 | 16203 | 107 | 231 | 27 | ||
| 2025-12-03T00:24 | 16536 | 101 | 251 | 28 | ||
| 2025-12-03T00:25 | 16823 | 96 | 262 | 28 | ||
| 2025-12-03T00:25 | 16985 | 93 | -82.9 | |||
| 2025-12-03T00:25 | 17078 | 92 | 267 | 27 | ||
| 2025-12-03T00:26 | 17208 | 89 | -82.2 | |||
| 2025-12-03T00:26 | 17283 | 88 | 250 | 24 | ||
| 2025-12-03T00:27 | 17455 | 86 | -82.5 | |||
| 2025-12-03T00:27 | 17574 | 84 | 258 | 27 | ||
| 2025-12-03T00:28 | 17843 | 80 | 272 | 25 | ||
| 2025-12-03T00:28 | 17942 | 78 | -82.1 | |||
| 2025-12-03T00:29 | 18141 | 76 | 283 | 21 | ||
| 2025-12-03T00:29 | 18200 | 75 | -80.8 | |||
| 2025-12-03T00:30 | 18329 | 73 | -79.3 | |||
| 2025-12-03T00:30 | 18422 | 72 | 268 | 13 | ||
| 2025-12-03T00:31 | 18680 | 69 | 244 | 13 | ||
| 2025-12-03T00:31 | 18803 | 67 | -80.3 | |||
| 2025-12-03T00:32 | 18948 | 66 | -78.5 | 264 | 13 | |
| 2025-12-03T00:33 | 19247 | 62 | -74.4 | 286 | 10 | |
| 2025-12-03T00:33 | 19372 | 61 | 313 | 7 | ||
| 2025-12-03T00:34 | 19476 | 60 | -72.9 | |||
| 2025-12-03T00:34 | 19514 | 60 | 311 | 9 | ||
| 2025-12-03T00:34 | 19652 | 58 | -71.9 | |||
| 2025-12-03T00:34 | 19735 | 57 | -70.5 | |||
| 2025-12-03T00:35 | 19789 | 57 | 303 | 7 | ||
| 2025-12-03T00:35 | 19881 | 56 | 277 | 5 | ||
| 2025-12-03T00:35 | 19970 | 55 | 210 | 6 | ||
| 2025-12-03T00:35 | 20014 | 55 | -66.5 | |||
| 2025-12-03T00:36 | 20283 | 52 | 219 | 9 | ||
| 2025-12-03T00:37 | 20449 | 51 | -67.6 | |||
| 2025-12-03T00:37 | 20470 | 51 | 228 | 9 | ||
| 2025-12-03T00:38 | 20689 | 49 | -64.8 | |||
| 2025-12-03T00:38 | 20790 | 48 | 296 | 11 | ||
| 2025-12-03T00:39 | 21048 | 46 | 319 | 7 | ||
| 2025-12-03T00:39 | 21062 | 46 | -63.0 | |||
| 2025-12-03T00:39 | 21157 | 45 | 322 | 1 | ||
| 2025-12-03T00:39 | 21280 | 44 | 176 | 3 | ||
| 2025-12-03T00:40 | 21380 | 44 | -62.3 | |||
| 2025-12-03T00:40 | 21493 | 43 | 228 | 5 | ||
| 2025-12-03T00:41 | 21665 | 42 | 220 | 2 | ||
| 2025-12-03T00:41 | 21787 | 41 | 233 | 2 | ||
| 2025-12-03T00:41 | 21970 | 40 | 287 | 5 | ||
| 2025-12-03T00:42 | 22129 | 39 | 278 | 2 | ||
| 2025-12-03T00:43 | 22476 | 37 | 235 | 2 | ||
| 2025-12-03T00:43 | 22493 | 37 | -60.5 | |||
| 2025-12-03T00:44 | 22789 | 35 | 312 | 3 | ||
| 2025-12-03T00:44 | 22934 | 34 | 353 | 5 | ||
| 2025-12-03T00:45 | 23163 | 33 | 360 | 3 | ||
| 2025-12-03T00:45 | 23180 | 33 | 4 | 3 | ||
| 2025-12-03T00:45 | 23278 | 32 | 52 | 2 | ||
| 2025-12-03T00:46 | 23359 | 32 | 129 | 3 | ||
| 2025-12-03T00:46 | 23438 | 31 | 123 | 4 | ||
| 2025-12-03T00:46 | 23541 | 31 | 53 | 4 | ||
| 2025-12-03T00:46 | 23603 | 31 | -57.0 | |||
| 2025-12-03T00:47 | 23901 | 29 | 91 | 7 | ||
| 2025-12-03T00:47 | 23966 | 29 | -55.8 | |||
| 2025-12-03T00:48 | 24056 | 29 | 83 | 6 | ||
| 2025-12-03T00:48 | 24194 | 28 | 99 | 5 | ||
| 2025-12-03T00:48 | 24352 | 27 | -55.0 | 80 | 9 | |
| 2025-12-03T11:31 | 8 | 1021 | 20.0 | 12.3 | 20 | 7 |
| 2025-12-03T11:31 | 15 | 1020 | 20.1 | 12.4 | 11 | 1 |
| 2025-12-03T11:31 | 44 | 1017 | 18 | 3 | ||
| 2025-12-03T11:31 | 79 | 1012 | 33 | 7 | ||
| 2025-12-03T11:32 | 225 | 995 | 11 | 10 | ||
| 2025-12-03T11:32 | 311 | 985 | 17.6 | 10.5 | ||
| 2025-12-03T11:32 | 385 | 977 | 23 | 12 | ||
| 2025-12-03T11:32 | 521 | 961 | 21 | 16 | ||
| 2025-12-03T11:33 | 867 | 923 | 20 | 17 | ||
| 2025-12-03T11:33 | 872 | 922 | 12.3 | 7.8 | ||
| 2025-12-03T11:34 | 1133 | 894 | 10.1 | 6.8 | ||
| 2025-12-03T11:34 | 1187 | 888 | 9 | 17 | ||
| 2025-12-03T11:35 | 1281 | 878 | 9.3 | 4.9 | ||
| 2025-12-03T11:35 | 1515 | 854 | 357 | 14 | ||
| 2025-12-03T11:36 | 1551 | 850 | 7.3 | 5.4 | ||
| 2025-12-03T11:36 | 1814 | 823 | 7 | 11 | ||
| 2025-12-03T11:37 | 2078 | 797 | 3.6 | 3.0 | ||
| 2025-12-03T11:37 | 2129 | 792 | 2 | 12 | ||
| 2025-12-03T11:38 | 2190 | 786 | 3.6 | 0.8 | ||
| 2025-12-03T11:38 | 2291 | 776 | 4.5 | -1.1 | ||
| 2025-12-03T11:38 | 2302 | 775 | 315 | 8 | ||
| 2025-12-03T11:38 | 2366 | 769 | 6.1 | -1.1 | ||
| 2025-12-03T11:38 | 2409 | 765 | 6.9 | -1.0 | ||
| 2025-12-03T11:38 | 2495 | 757 | 7.5 | -0.5 | ||
| 2025-12-03T11:39 | 2579 | 750 | 287 | 10 | ||
| 2025-12-03T11:39 | 2637 | 744 | 7.6 | -1.4 | ||
| 2025-12-03T11:39 | 2732 | 736 | 273 | 10 | ||
| 2025-12-03T11:39 | 2850 | 725 | 6.0 | -2.4 | ||
| 2025-12-03T11:40 | 3040 | 709 | 285 | 12 | ||
| 2025-12-03T11:40 | 3222 | 693 | 3.5 | -0.7 | ||
| 2025-12-03T11:41 | 3411 | 677 | 290 | 13 | ||
| 2025-12-03T11:41 | 3546 | 666 | 0.7 | -1.7 | ||
| 2025-12-03T11:42 | 3743 | 650 | 284 | 14 | ||
| 2025-12-03T11:42 | 3795 | 645 | -1.0 | -2.1 | ||
| 2025-12-03T11:43 | 3931 | 634 | -1.2 | -2.9 | ||
| 2025-12-03T11:43 | 3987 | 630 | 288 | 17 | ||
| 2025-12-03T11:43 | 4022 | 627 | -1.1 | -4.4 | ||
| 2025-12-03T11:43 | 4071 | 623 | 0.7 | -9.6 | ||
| 2025-12-03T11:43 | 4137 | 618 | 1.1 | -12.7 | ||
| 2025-12-03T11:43 | 4169 | 616 | 288 | 16 | ||
| 2025-12-03T11:43 | 4208 | 613 | 1.4 | -9.8 | ||
| 2025-12-03T11:44 | 4315 | 605 | 1.4 | -8.2 | ||
| 2025-12-03T11:44 | 4349 | 602 | 281 | 21 | ||
| 2025-12-03T11:44 | 4427 | 597 | 1.4 | -10.1 | ||
| 2025-12-03T11:44 | 4470 | 593 | 2.7 | -21.4 | ||
| 2025-12-03T11:44 | 4527 | 589 | 3.1 | -24.6 | ||
| 2025-12-03T11:44 | 4545 | 588 | 282 | 22 | ||
| 2025-12-03T11:45 | 4608 | 583 | 3.1 | -31.1 | ||
| 2025-12-03T11:45 | 4703 | 577 | 2.4 | -17.7 | ||
| 2025-12-03T11:45 | 4838 | 567 | 282 | 25 | ||
| 2025-12-03T11:45 | 4931 | 560 | 1.3 | -20.5 | ||
| 2025-12-03T11:46 | 5031 | 553 | 1.2 | -19.9 | ||
| 2025-12-03T11:46 | 5087 | 550 | 1.2 | -22.6 | ||
| 2025-12-03T11:46 | 5163 | 545 | 0.7 | -17.1 | ||
| 2025-12-03T11:46 | 5212 | 541 | 273 | 25 | ||
| 2025-12-03T11:46 | 5290 | 536 | -0.1 | -14.1 | ||
| 2025-12-03T11:47 | 5424 | 527 | -0.3 | -16.2 | ||
| 2025-12-03T11:47 | 5471 | 524 | 275 | 29 | ||
| 2025-12-03T11:47 | 5640 | 513 | -0.3 | -21.8 | ||
| 2025-12-03T11:48 | 5800 | 503 | 271 | 25 | ||
| 2025-12-03T11:48 | 5869 | 498 | -1.8 | -28.5 | ||
| 2025-12-03T11:49 | 6093 | 485 | -3.2 | -27.8 | ||
| 2025-12-03T11:49 | 6103 | 484 | 270 | 26 | ||
| 2025-12-03T11:50 | 6400 | 466 | 281 | 26 | ||
| 2025-12-03T11:50 | 6566 | 456 | -6.3 | -27.4 | ||
| 2025-12-03T11:51 | 6748 | 446 | 280 | 28 | ||
| 2025-12-03T11:52 | 7116 | 425 | 278 | 28 | ||
| 2025-12-03T11:53 | 7337 | 413 | -13.0 | -35.7 | ||
| 2025-12-03T11:53 | 7440 | 407 | 270 | 29 | ||
| 2025-12-03T11:53 | 7473 | 405 | -12.6 | -49.2 | ||
| 2025-12-03T11:54 | 7759 | 390 | 273 | 31 | ||
| 2025-12-03T11:54 | 7811 | 388 | -14.9 | -54.2 | ||
| 2025-12-03T11:55 | 7963 | 380 | 274 | 29 | ||
| 2025-12-03T11:56 | 8283 | 364 | 272 | 28 | ||
| 2025-12-03T11:56 | 8308 | 363 | -18.7 | -53.5 | ||
| 2025-12-03T11:57 | 8582 | 350 | 268 | 28 | ||
| 2025-12-03T11:58 | 8875 | 336 | 269 | 29 | ||
| 2025-12-03T11:59 | 9169 | 323 | -26.0 | -54.6 | ||
| 2025-12-03T11:59 | 9185 | 322 | 267 | 30 | ||
| 2025-12-03T12:00 | 9498 | 308 | 266 | 29 | ||
| 2025-12-03T12:00 | 9618 | 303 | -30.0 | -53.8 | ||
| 2025-12-03T12:01 | 9794 | 296 | 260 | 30 | ||
| 2025-12-03T12:02 | 10090 | 283 | 258 | 31 | ||
| 2025-12-03T12:02 | 10323 | 274 | -35.8 | -56.6 | ||
| 2025-12-03T12:03 | 10394 | 271 | 254 | 31 | ||
| 2025-12-03T12:04 | 10682 | 260 | 257 | 31 | ||
| 2025-12-03T12:04 | 10803 | 256 | -40.0 | -59.2 | ||
| 2025-12-03T12:05 | 10958 | 250 | 261 | 31 | ||
| 2025-12-03T12:06 | 11228 | 240 | 264 | 31 | ||
| 2025-12-03T12:07 | 11512 | 230 | 267 | 28 | ||
| 2025-12-03T12:08 | 11787 | 221 | 261 | 29 | ||
| 2025-12-03T12:08 | 11880 | 218 | -48.2 | |||
| 2025-12-03T12:09 | 12077 | 211 | 259 | 30 | ||
| 2025-12-03T12:10 | 12362 | 202 | 253 | 30 | ||
| 2025-12-03T12:11 | 12637 | 194 | 255 | 29 | ||
| 2025-12-03T12:12 | 12910 | 186 | 258 | 30 | ||
| 2025-12-03T12:12 | 12924 | 185 | -56.1 | |||
| 2025-12-03T12:13 | 13186 | 178 | 258 | 30 | ||
| 2025-12-03T12:13 | 13467 | 170 | 255 | 30 | ||
| 2025-12-03T12:14 | 13775 | 162 | 254 | 30 | ||
| 2025-12-03T12:16 | 14089 | 154 | 255 | 31 | ||
| 2025-12-03T12:17 | 14399 | 146 | 261 | 31 | ||
| 2025-12-03T12:17 | 14413 | 146 | -67.5 | |||
| 2025-12-03T12:18 | 14689 | 139 | 257 | 30 | ||
| 2025-12-03T12:19 | 14977 | 132 | 255 | 29 | ||
| 2025-12-03T12:20 | 15267 | 126 | 255 | 29 | ||
| 2025-12-03T12:20 | 15308 | 125 | -74.3 | |||
| 2025-12-03T12:21 | 15543 | 120 | -75.0 | |||
| 2025-12-03T12:21 | 15553 | 120 | 246 | 28 | ||
| 2025-12-03T12:22 | 15853 | 114 | 239 | 29 | ||
| 2025-12-03T12:22 | 16054 | 110 | -78.1 | |||
| 2025-12-03T12:23 | 16134 | 108 | 243 | 30 | ||
| 2025-12-03T12:23 | 16255 | 106 | -78.9 | |||
| 2025-12-03T12:24 | 16421 | 103 | 264 | 33 | ||
| 2025-12-03T12:24 | 16479 | 102 | -78.9 | |||
| 2025-12-03T12:25 | 16711 | 98 | 274 | 32 | ||
| 2025-12-03T12:25 | 16829 | 96 | -80.6 | |||
| 2025-12-03T12:26 | 16989 | 93 | 267 | 29 | ||
| 2025-12-03T12:27 | 17276 | 89 | 265 | 30 | ||
| 2025-12-03T12:27 | 17455 | 86 | -80.2 | |||
| 2025-12-03T12:27 | 17522 | 85 | 283 | 25 | ||
| 2025-12-03T12:28 | 17567 | 84 | -79.3 | |||
| 2025-12-03T12:28 | 17808 | 81 | 282 | 19 | ||
| 2025-12-03T12:29 | 17836 | 80 | -79.8 | |||
| 2025-12-03T12:29 | 17957 | 79 | -77.6 | |||
| 2025-12-03T12:29 | 18091 | 77 | 243 | 12 | ||
| 2025-12-03T12:30 | 18236 | 75 | -77.2 | |||
| 2025-12-03T12:31 | 18376 | 73 | 249 | 14 | ||
| 2025-12-03T12:31 | 18527 | 71 | -77.9 | |||
| 2025-12-03T12:31 | 18575 | 71 | 253 | 14 | ||
| 2025-12-03T12:32 | 18722 | 69 | -76.1 | |||
| 2025-12-03T12:32 | 18833 | 67 | -73.0 | |||
| 2025-12-03T12:32 | 18850 | 67 | 259 | 11 | ||
| 2025-12-03T12:33 | 18938 | 66 | 247 | 9 | ||
| 2025-12-03T12:33 | 18976 | 66 | -71.8 | |||
| 2025-12-03T12:33 | 19047 | 65 | 228 | 11 | ||
| 2025-12-03T12:33 | 19212 | 63 | 248 | 12 | ||
| 2025-12-03T12:34 | 19230 | 63 | -70.8 | |||
| 2025-12-03T12:34 | 19346 | 62 | 254 | 10 | ||
| 2025-12-03T12:35 | 19532 | 60 | -67.1 | |||
| 2025-12-03T12:35 | 19563 | 60 | 271 | 7 | ||
| 2025-12-03T12:35 | 19687 | 58 | 242 | 5 | ||
| 2025-12-03T12:35 | 19809 | 57 | 240 | 7 | ||
| 2025-12-03T12:36 | 20139 | 54 | 272 | 9 | ||
| 2025-12-03T12:37 | 20320 | 53 | -71.1 | |||
| 2025-12-03T12:37 | 20443 | 51 | 282 | 10 | ||
| 2025-12-03T12:38 | 20479 | 51 | -69.8 | |||
| 2025-12-03T12:38 | 20593 | 50 | 298 | 9 | ||
| 2025-12-03T12:38 | 20643 | 50 | -67.1 | |||
| 2025-12-03T12:39 | 20768 | 49 | 323 | 6 | ||
| 2025-12-03T12:39 | 20817 | 48 | 312 | 2 | ||
| 2025-12-03T12:39 | 20869 | 48 | -62.3 | |||
| 2025-12-03T12:39 | 21026 | 47 | 196 | 1 | ||
| 2025-12-03T12:40 | 21104 | 46 | 198 | 8 | ||
| 2025-12-03T12:40 | 21197 | 45 | 221 | 2 | ||
| 2025-12-03T12:41 | 21487 | 43 | 295 | 3 | ||
| 2025-12-03T12:41 | 21532 | 43 | -63.8 | |||
| 2025-12-03T12:41 | 21647 | 42 | 359 | 1 | ||
| 2025-12-03T12:41 | 21707 | 42 | -60.5 | |||
| 2025-12-03T12:42 | 21902 | 41 | 62 | 4 | ||
| 2025-12-03T12:42 | 22010 | 40 | 81 | 4 | ||
| 2025-12-03T12:43 | 22152 | 39 | 139 | 5 | ||
| 2025-12-03T12:43 | 22252 | 38 | -60.5 | |||
| 2025-12-03T12:43 | 22331 | 38 | 151 | 6 | ||
| 2025-12-03T12:44 | 22446 | 37 | 166 | 4 | ||
| 2025-12-03T12:44 | 22602 | 36 | 128 | 1 | ||
| 2025-12-03T12:45 | 22939 | 34 | 186 | 1 | ||
| 2025-12-03T12:46 | 23237 | 33 | 339 | 3 | ||
| 2025-12-03T12:47 | 23414 | 32 | -58.3 | |||
| 2025-12-03T12:47 | 23572 | 31 | 340 | 8 | ||
| 2025-12-03T12:47 | 23736 | 30 | 333 | 4 | ||
| 2025-12-03T12:48 | 23974 | 29 | 334 | 7 | ||
| 2025-12-03T12:48 | 24082 | 29 | 7 | 4 | ||
| 2025-12-03T12:49 | 24169 | 28 | 34 | 5 | ||
| 2025-12-03T12:49 | 24329 | 28 | -56.6 | |||
| 2025-12-03T12:49 | 24403 | 27 | 8 | 9 | ||
| 2025-12-03T12:50 | 24452 | 27 | -56.9 | 14 | 10 | |
| 2025-12-03T23:31 | 8 | 1023 | 18.4 | 9.5 | 20 | 4 |
| 2025-12-03T23:31 | 14 | 1022 | 18.5 | 9.6 | 359 | 1 |
| 2025-12-03T23:31 | 93 | 1013 | 35 | 6 | ||
| 2025-12-03T23:32 | 207 | 999 | 17.0 | 8.2 | ||
| 2025-12-03T23:32 | 283 | 990 | 27 | 8 | ||
| 2025-12-03T23:32 | 471 | 969 | 36 | 10 | ||
| 2025-12-03T23:33 | 640 | 949 | 41 | 10 | ||
| 2025-12-03T23:33 | 792 | 932 | 55 | 10 | ||
| 2025-12-03T23:34 | 1104 | 898 | 55 | 10 | ||
| 2025-12-03T23:35 | 1256 | 882 | 7.5 | 6.0 | ||
| 2025-12-03T23:35 | 1289 | 878 | 45 | 11 | ||
| 2025-12-03T23:36 | 1522 | 854 | 41 | 11 | ||
| 2025-12-03T23:36 | 1563 | 849 | 5.4 | 4.5 | ||
| 2025-12-03T23:37 | 1829 | 822 | 22 | 11 | ||
| 2025-12-03T23:37 | 2078 | 797 | 2.4 | 2.0 | ||
| 2025-12-03T23:37 | 2117 | 793 | 2.6 | -0.5 | ||
| 2025-12-03T23:37 | 2138 | 791 | 350 | 11 | ||
| 2025-12-03T23:38 | 2179 | 788 | 6.9 | -4.2 | ||
| 2025-12-03T23:38 | 2200 | 786 | 8.3 | -4.2 | ||
| 2025-12-03T23:38 | 2313 | 775 | 328 | 10 | ||
| 2025-12-03T23:38 | 2341 | 772 | 8.2 | -6.0 | ||
| 2025-12-03T23:39 | 2639 | 745 | 322 | 9 | ||
| 2025-12-03T23:40 | 2966 | 715 | 302 | 8 | ||
| 2025-12-03T23:40 | 2989 | 713 | 3.3 | -8.1 | ||
| 2025-12-03T23:40 | 3208 | 694 | 283 | 10 | ||
| 2025-12-03T23:40 | 3218 | 693 | 1.1 | -6.7 | ||
| 2025-12-03T23:41 | 3346 | 682 | 286 | 9 | ||
| 2025-12-03T23:41 | 3356 | 682 | 0.1 | -4.5 | ||
| 2025-12-03T23:41 | 3500 | 669 | -0.4 | -7.2 | ||
| 2025-12-03T23:42 | 3597 | 661 | -0.1 | -8.8 | ||
| 2025-12-03T23:42 | 3677 | 655 | 297 | 10 | ||
| 2025-12-03T23:42 | 3763 | 648 | -1.0 | -11.7 | ||
| 2025-12-03T23:42 | 3838 | 642 | 1.7 | -15.3 | ||
| 2025-12-03T23:42 | 3884 | 638 | 3.2 | -18.9 | ||
| 2025-12-03T23:43 | 3926 | 635 | 294 | 18 | ||
| 2025-12-03T23:43 | 3938 | 634 | 4.0 | -24.9 | ||
| 2025-12-03T23:43 | 3974 | 631 | 5.8 | -33.4 | ||
| 2025-12-03T23:43 | 4041 | 626 | 286 | 21 | ||
| 2025-12-03T23:43 | 4079 | 623 | 6.2 | -40.0 | ||
| 2025-12-03T23:43 | 4269 | 609 | 295 | 17 | ||
| 2025-12-03T23:44 | 4402 | 599 | 4.8 | -47.3 | ||
| 2025-12-03T23:45 | 4668 | 580 | 282 | 19 | ||
| 2025-12-03T23:45 | 4953 | 560 | 2.4 | -48.8 | ||
| 2025-12-03T23:45 | 5044 | 553 | 276 | 21 | ||
| 2025-12-03T23:46 | 5095 | 550 | 2.0 | -19.9 | ||
| 2025-12-03T23:46 | 5302 | 536 | 275 | 23 | ||
| 2025-12-03T23:47 | 5417 | 528 | 0.4 | -22.5 | ||
| 2025-12-03T23:47 | 5592 | 517 | 267 | 24 | ||
| 2025-12-03T23:48 | 5920 | 496 | 270 | 22 | ||
| 2025-12-03T23:49 | 5983 | 492 | -4.0 | -26.9 | ||
| 2025-12-03T23:49 | 6247 | 476 | -5.9 | -29.2 | ||
| 2025-12-03T23:49 | 6264 | 475 | 278 | 23 | ||
| 2025-12-03T23:50 | 6449 | 463 | -7.6 | -31.3 | ||
| 2025-12-03T23:50 | 6624 | 453 | 275 | 24 | ||
| 2025-12-03T23:50 | 6630 | 453 | -8.4 | -39.7 | ||
| 2025-12-03T23:51 | 6706 | 448 | -8.1 | -43.3 | ||
| 2025-12-03T23:51 | 6976 | 433 | 277 | 27 | ||
| 2025-12-03T23:52 | 7266 | 417 | -11.8 | -48.6 | ||
| 2025-12-03T23:52 | 7345 | 413 | 278 | 28 | ||
| 2025-12-03T23:53 | 7713 | 393 | 276 | 28 | ||
| 2025-12-03T23:53 | 7732 | 392 | -15.8 | -47.0 | ||
| 2025-12-03T23:54 | 8085 | 374 | 270 | 29 | ||
| 2025-12-03T23:55 | 8192 | 369 | -19.6 | -46.8 | ||
| 2025-12-03T23:55 | 8437 | 357 | 266 | 29 | ||
| 2025-12-03T23:56 | 8784 | 340 | 261 | 28 | ||
| 2025-12-03T23:57 | 9116 | 325 | 260 | 30 | ||
| 2025-12-03T23:58 | 9186 | 322 | -27.6 | -47.0 | ||
| 2025-12-03T23:58 | 9413 | 312 | -29.6 | -47.5 | ||
| 2025-12-03T23:58 | 9454 | 310 | 263 | 30 | ||
| 2025-12-03T23:59 | 9730 | 298 | -32.5 | -47.1 | ||
| 2025-12-03T23:59 | 9783 | 296 | 264 | 30 | ||
| 2025-12-04T00:00 | 10086 | 283 | 262 | 30 | ||
| 2025-12-04T00:00 | 10105 | 283 | -35.9 | -46.2 | ||
| 2025-12-04T00:01 | 10206 | 279 | -36.1 | -48.7 | ||
| 2025-12-04T00:01 | 10396 | 271 | 264 | 32 | ||
| 2025-12-04T00:01 | 10437 | 269 | -38.0 | -49.5 | ||
| 2025-12-04T00:02 | 10636 | 262 | -38.9 | -55.3 | ||
| 2025-12-04T00:02 | 10681 | 260 | 264 | 32 | ||
| 2025-12-04T00:03 | 10905 | 252 | -40.0 | -60.8 | ||
| 2025-12-04T00:03 | 10957 | 250 | 262 | 34 | ||
| 2025-12-04T00:04 | 11240 | 240 | 261 | 33 | ||
| 2025-12-04T00:05 | 11498 | 231 | -44.3 | |||
| 2025-12-04T00:05 | 11516 | 230 | 259 | 34 | ||
| 2025-12-04T00:06 | 11795 | 220 | 256 | 36 | ||
| 2025-12-04T00:07 | 12063 | 212 | 255 | 37 | ||
| 2025-12-04T00:08 | 12335 | 203 | 259 | 36 | ||
| 2025-12-04T00:09 | 12607 | 195 | 258 | 36 | ||
| 2025-12-04T00:10 | 12877 | 187 | -55.9 | |||
| 2025-12-04T00:10 | 12896 | 186 | 257 | 33 | ||
| 2025-12-04T00:11 | 13173 | 178 | 256 | 33 | ||
| 2025-12-04T00:12 | 13430 | 171 | 254 | 32 | ||
| 2025-12-04T00:13 | 13689 | 164 | 249 | 31 | ||
| 2025-12-04T00:14 | 13767 | 162 | -63.1 | |||
| 2025-12-04T00:14 | 13953 | 157 | 250 | 30 | ||
| 2025-12-04T00:15 | 14067 | 154 | -64.9 | |||
| 2025-12-04T00:15 | 14229 | 150 | 254 | 29 | ||
| 2025-12-04T00:16 | 14510 | 143 | 251 | 30 | ||
| 2025-12-04T00:17 | 14799 | 137 | 242 | 29 | ||
| 2025-12-04T00:18 | 15080 | 130 | 247 | 30 | ||
| 2025-12-04T00:19 | 15363 | 124 | 245 | 30 | ||
| 2025-12-04T00:20 | 15481 | 122 | -75.5 | |||
| 2025-12-04T00:20 | 15648 | 118 | 251 | 29 | ||
| 2025-12-04T00:21 | 15806 | 115 | -76.8 | |||
| 2025-12-04T00:21 | 15941 | 112 | 257 | 30 | ||
| 2025-12-04T00:22 | 16061 | 110 | -77.1 | |||
| 2025-12-04T00:22 | 16252 | 106 | -78.0 | |||
| 2025-12-04T00:22 | 16267 | 106 | 271 | 27 | ||
| 2025-12-04T00:23 | 16432 | 103 | -78.0 | |||
| 2025-12-04T00:23 | 16569 | 101 | 266 | 26 | ||
| 2025-12-04T00:24 | 16797 | 97 | -80.1 | |||
| 2025-12-04T00:24 | 16849 | 96 | 276 | 26 | ||
| 2025-12-04T00:25 | 17117 | 91 | 277 | 26 | ||
| 2025-12-04T00:26 | 17239 | 89 | -82.3 | |||
| 2025-12-04T00:26 | 17393 | 87 | 287 | 22 | ||
| 2025-12-04T00:26 | 17398 | 87 | -81.3 | |||
| 2025-12-04T00:27 | 17489 | 85 | -79.7 | |||
| 2025-12-04T00:27 | 17558 | 84 | 261 | 16 | ||
| 2025-12-04T00:28 | 17839 | 80 | 246 | 19 | ||
| 2025-12-04T00:28 | 17923 | 79 | -81.3 | |||
| 2025-12-04T00:29 | 18109 | 76 | 260 | 21 | ||
| 2025-12-04T00:30 | 18342 | 73 | -80.6 | |||
| 2025-12-04T00:30 | 18383 | 73 | 279 | 19 | ||
| 2025-12-04T00:31 | 18589 | 70 | -76.6 | |||
| 2025-12-04T00:31 | 18619 | 70 | 254 | 11 | ||
| 2025-12-04T00:32 | 18908 | 66 | 259 | 13 | ||
| 2025-12-04T00:32 | 19029 | 65 | -76.8 | |||
| 2025-12-04T00:33 | 19148 | 64 | 273 | 11 | ||
| 2025-12-04T00:33 | 19330 | 62 | -75.5 | |||
| 2025-12-04T00:33 | 19339 | 62 | 287 | 11 | ||
| 2025-12-04T00:33 | 19399 | 61 | -72.1 | |||
| 2025-12-04T00:34 | 19465 | 60 | 271 | 6 | ||
| 2025-12-04T00:34 | 19552 | 59 | -72.8 | |||
| 2025-12-04T00:34 | 19602 | 59 | 291 | 5 | ||
| 2025-12-04T00:34 | 19643 | 59 | -71.8 | |||
| 2025-12-04T00:35 | 19788 | 57 | 331 | 4 | ||
| 2025-12-04T00:35 | 19966 | 55 | -72.1 | |||
| 2025-12-04T00:36 | 20040 | 55 | 293 | 5 | ||
| 2025-12-04T00:36 | 20193 | 53 | 325 | 6 | ||
| 2025-12-04T00:37 | 20412 | 51 | -67.6 | |||
| 2025-12-04T00:37 | 20517 | 51 | 349 | 8 | ||
| 2025-12-04T00:37 | 20637 | 50 | -67.4 | |||
| 2025-12-04T00:38 | 20685 | 49 | 313 | 2 | ||
| 2025-12-04T00:38 | 20824 | 48 | -66.4 | |||
| 2025-12-04T00:38 | 20861 | 48 | 263 | 3 | ||
| 2025-12-04T00:39 | 21014 | 47 | 253 | 4 | ||
| 2025-12-04T00:39 | 21132 | 46 | 283 | 6 | ||
| 2025-12-04T00:39 | 21160 | 45 | -67.2 | |||
| 2025-12-04T00:39 | 21293 | 44 | 303 | 5 | ||
| 2025-12-04T00:40 | 21432 | 43 | -63.2 | |||
| 2025-12-04T00:40 | 21562 | 43 | 338 | 3 | ||
| 2025-12-04T00:40 | 21576 | 42 | -61.3 | |||
| 2025-12-04T00:41 | 21784 | 41 | 176 | 3 | ||
| 2025-12-04T00:41 | 21908 | 40 | 165 | 1 | ||
| 2025-12-04T00:41 | 21924 | 40 | -60.3 | |||
| 2025-12-04T00:42 | 22052 | 39 | 26 | 3 | ||
| 2025-12-04T00:42 | 22278 | 38 | 6 | 6 | ||
| 2025-12-04T00:43 | 22511 | 37 | -60.7 | |||
| 2025-12-04T00:43 | 22528 | 36 | 25 | 7 | ||
| 2025-12-04T00:44 | 22651 | 36 | 24 | 9 | ||
| 2025-12-04T00:45 | 22973 | 34 | -58.6 | |||
| 2025-12-04T00:45 | 22992 | 34 | 46 | 8 | ||
| 2025-12-04T00:45 | 23217 | 33 | 44 | 8 | ||
| 2025-12-04T00:46 | 23431 | 32 | -58.7 | |||
| 2025-12-04T00:46 | 23513 | 31 | 42 | 8 | ||
| 2025-12-04T00:46 | 23595 | 31 | -57.5 | |||
| 2025-12-04T00:46 | 23637 | 31 | 61 | 7 | ||
| 2025-12-04T00:47 | 23805 | 30 | 36 | 10 | ||
| 2025-12-04T00:48 | 24108 | 28 | 37 | 10 | ||
| 2025-12-04T00:49 | 24385 | 27 | 48 | 10 | ||
| 2025-12-04T00:49 | 24431 | 27 | -56.1 | |||
| 2025-12-04T00:49 | 24544 | 26 | -55.4 | 42 | 11 | |
| 2025-12-04T11:31 | 8 | 1022 | 19.1 | 11.9 | 20 | 4 |
| 2025-12-04T11:31 | 10 | 1021 | 19.1 | 12.1 | 0 | 0 |
| 2025-12-04T11:31 | 30 | 1019 | 27 | 3 | ||
| 2025-12-04T11:31 | 115 | 1009 | 19.3 | 10.6 | ||
| 2025-12-04T11:32 | 265 | 992 | 58 | 8 | ||
| 2025-12-04T11:32 | 412 | 975 | 16.9 | 9.1 | ||
| 2025-12-04T11:33 | 584 | 955 | 43 | 8 | ||
| 2025-12-04T11:34 | 817 | 929 | 13.1 | 8.2 | ||
| 2025-12-04T11:34 | 866 | 924 | 47 | 8 | ||
| 2025-12-04T11:34 | 1054 | 903 | 67 | 8 | ||
| 2025-12-04T11:35 | 1230 | 884 | 9.8 | 5.4 | ||
| 2025-12-04T11:35 | 1358 | 871 | 58 | 5 | ||
| 2025-12-04T11:36 | 1538 | 852 | 57 | 6 | ||
| 2025-12-04T11:37 | 1857 | 819 | 31 | 5 | ||
| 2025-12-04T11:37 | 1960 | 809 | 3.3 | 2.6 | ||
| 2025-12-04T11:38 | 2141 | 791 | 33 | 5 | ||
| 2025-12-04T11:38 | 2151 | 790 | 1.8 | 0.9 | ||
| 2025-12-04T11:38 | 2178 | 788 | 2.4 | -0.9 | ||
| 2025-12-04T11:38 | 2209 | 785 | 4.1 | -6.2 | ||
| 2025-12-04T11:38 | 2235 | 782 | 6.1 | -15.2 | ||
| 2025-12-04T11:38 | 2265 | 779 | 7.5 | -11.3 | ||
| 2025-12-04T11:38 | 2286 | 777 | 343 | 10 | ||
| 2025-12-04T11:38 | 2316 | 774 | 7.7 | -7.6 | ||
| 2025-12-04T11:39 | 2517 | 756 | 337 | 6 | ||
| 2025-12-04T11:39 | 2629 | 745 | 321 | 5 | ||
| 2025-12-04T11:40 | 2801 | 730 | 5.0 | -8.5 | ||
| 2025-12-04T11:40 | 2967 | 715 | 331 | 6 | ||
| 2025-12-04T11:41 | 3149 | 699 | 2.5 | -8.0 | ||
| 2025-12-04T11:41 | 3194 | 695 | 327 | 8 | ||
| 2025-12-04T11:42 | 3484 | 671 | 0.0 | -7.3 | 301 | 12 |
| 2025-12-04T11:42 | 3540 | 666 | 0.0 | -8.2 | ||
| 2025-12-04T11:43 | 3690 | 654 | 313 | 10 | ||
| 2025-12-04T11:43 | 3735 | 650 | 0.7 | -15.8 | ||
| 2025-12-04T11:43 | 3790 | 645 | 1.0 | -18.9 | ||
| 2025-12-04T11:43 | 3844 | 641 | 2.8 | -24.8 | ||
| 2025-12-04T11:43 | 3944 | 633 | 4.0 | -28.8 | ||
| 2025-12-04T11:43 | 3958 | 632 | 288 | 14 | ||
| 2025-12-04T11:44 | 4129 | 619 | 4.1 | -32.3 | ||
| 2025-12-04T11:44 | 4260 | 609 | 4.3 | -37.3 | ||
| 2025-12-04T11:44 | 4277 | 608 | 298 | 18 | ||
| 2025-12-04T11:45 | 4453 | 595 | 4.1 | -41.4 | ||
| 2025-12-04T11:45 | 4617 | 583 | 280 | 19 | ||
| 2025-12-04T11:46 | 4677 | 579 | 2.9 | -42.2 | ||
| 2025-12-04T11:46 | 4952 | 559 | 279 | 19 | ||
| 2025-12-04T11:47 | 5154 | 545 | 0.2 | -50.2 | ||
| 2025-12-04T11:47 | 5287 | 536 | 277 | 20 | ||
| 2025-12-04T11:48 | 5483 | 523 | -1.3 | -41.2 | ||
| 2025-12-04T11:48 | 5600 | 516 | 276 | 21 | ||
| 2025-12-04T11:49 | 5794 | 503 | -3.6 | -27.3 | ||
| 2025-12-04T11:49 | 5907 | 496 | 271 | 21 | ||
| 2025-12-04T11:50 | 6109 | 483 | -5.0 | -33.1 | ||
| 2025-12-04T11:50 | 6202 | 478 | 274 | 25 | ||
| 2025-12-04T11:50 | 6233 | 476 | -4.9 | -47.4 | ||
| 2025-12-04T11:51 | 6511 | 459 | 271 | 29 | ||
| 2025-12-04T11:52 | 6807 | 442 | -9.4 | -31.3 | ||
| 2025-12-04T11:52 | 6835 | 440 | 270 | 27 | ||
| 2025-12-04T11:53 | 6947 | 434 | -10.3 | -35.2 | ||
| 2025-12-04T11:53 | 7162 | 422 | 273 | 30 | ||
| 2025-12-04T11:54 | 7283 | 416 | -12.8 | -41.6 | ||
| 2025-12-04T11:54 | 7423 | 408 | -14.0 | -39.1 | ||
| 2025-12-04T11:54 | 7482 | 405 | 271 | 29 | ||
| 2025-12-04T11:55 | 7805 | 388 | -17.3 | -41.7 | ||
| 2025-12-04T11:55 | 7816 | 387 | 268 | 29 | ||
| 2025-12-04T11:56 | 8113 | 372 | 264 | 30 | ||
| 2025-12-04T11:57 | 8360 | 360 | -20.8 | -46.5 | ||
| 2025-12-04T11:57 | 8421 | 357 | 263 | 31 | ||
| 2025-12-04T11:58 | 8572 | 350 | -22.5 | -41.5 | ||
| 2025-12-04T11:58 | 8707 | 343 | -23.6 | -37.8 | ||
| 2025-12-04T11:58 | 8712 | 343 | 262 | 32 | ||
| 2025-12-04T11:59 | 8888 | 335 | -24.4 | -42.0 | ||
| 2025-12-04T11:59 | 8965 | 332 | -24.8 | -42.3 | ||
| 2025-12-04T11:59 | 9011 | 329 | 260 | 33 | ||
| 2025-12-04T12:00 | 9304 | 316 | 260 | 33 | ||
| 2025-12-04T12:01 | 9519 | 307 | -29.9 | -41.6 | ||
| 2025-12-04T12:01 | 9598 | 304 | 256 | 34 | ||
| 2025-12-04T12:02 | 9784 | 296 | -31.7 | -46.0 | ||
| 2025-12-04T12:02 | 9885 | 292 | 261 | 35 | ||
| 2025-12-04T12:03 | 10012 | 286 | -32.5 | -53.1 | ||
| 2025-12-04T12:03 | 10169 | 280 | 260 | 36 | ||
| 2025-12-04T12:04 | 10470 | 268 | 257 | 36 | ||
| 2025-12-04T12:05 | 10551 | 265 | -36.5 | -55.7 | ||
| 2025-12-04T12:05 | 10771 | 257 | 252 | 36 | ||
| 2025-12-04T12:06 | 11036 | 247 | -40.0 | -59.2 | ||
| 2025-12-04T12:06 | 11060 | 246 | 255 | 36 | ||
| 2025-12-04T12:07 | 11345 | 236 | 255 | 35 | ||
| 2025-12-04T12:08 | 11626 | 226 | 254 | 35 | ||
| 2025-12-04T12:09 | 11891 | 217 | 253 | 35 | ||
| 2025-12-04T12:10 | 12155 | 209 | 248 | 35 | ||
| 2025-12-04T12:11 | 12390 | 201 | -50.7 | |||
| 2025-12-04T12:11 | 12411 | 201 | 250 | 37 | ||
| 2025-12-04T12:12 | 12664 | 193 | 249 | 36 | ||
| 2025-12-04T12:13 | 12927 | 185 | 250 | 36 | ||
| 2025-12-04T12:14 | 13204 | 177 | 250 | 36 | ||
| 2025-12-04T12:15 | 13498 | 169 | -59.9 | 254 | 35 | |
| 2025-12-04T12:16 | 13789 | 162 | 256 | 35 | ||
| 2025-12-04T12:17 | 14079 | 154 | 254 | 32 | ||
| 2025-12-04T12:18 | 14153 | 152 | -65.2 | |||
| 2025-12-04T12:18 | 14361 | 147 | 251 | 32 | ||
| 2025-12-04T12:19 | 14522 | 143 | -68.0 | |||
| 2025-12-04T12:19 | 14611 | 141 | -66.9 | |||
| 2025-12-04T12:19 | 14657 | 140 | 243 | 31 | ||
| 2025-12-04T12:20 | 14952 | 133 | 242 | 31 | ||
| 2025-12-04T12:21 | 15224 | 127 | 246 | 32 | ||
| 2025-12-04T12:22 | 15500 | 121 | 249 | 32 | ||
| 2025-12-04T12:23 | 15774 | 116 | 254 | 31 | ||
| 2025-12-04T12:24 | 15883 | 114 | -77.4 | |||
| 2025-12-04T12:24 | 16056 | 110 | 266 | 29 | ||
| 2025-12-04T12:25 | 16257 | 106 | -79.8 | |||
| 2025-12-04T12:25 | 16330 | 105 | 270 | 29 | ||
| 2025-12-04T12:26 | 16497 | 102 | -81.6 | |||
| 2025-12-04T12:26 | 16592 | 100 | 265 | 28 | ||
| 2025-12-04T12:27 | 16711 | 98 | -81.7 | |||
| 2025-12-04T12:27 | 16846 | 96 | 267 | 26 | ||
| 2025-12-04T12:28 | 17109 | 91 | 279 | 22 | ||
| 2025-12-04T12:28 | 17144 | 91 | -81.7 | |||
| 2025-12-04T12:29 | 17397 | 87 | 268 | 17 | ||
| 2025-12-04T12:30 | 17527 | 85 | -82.9 | |||
| 2025-12-04T12:30 | 17571 | 84 | 269 | 17 | ||
| 2025-12-04T12:31 | 17810 | 81 | -81.3 | |||
| 2025-12-04T12:31 | 17854 | 80 | 279 | 17 | ||
| 2025-12-04T12:32 | 18139 | 76 | -82.2 | |||
| 2025-12-04T12:32 | 18147 | 76 | 291 | 20 | ||
| 2025-12-04T12:32 | 18289 | 74 | -80.3 | |||
| 2025-12-04T12:33 | 18406 | 72 | 303 | 13 | ||
| 2025-12-04T12:33 | 18459 | 72 | -80.2 | |||
| 2025-12-04T12:33 | 18533 | 71 | -78.9 | |||
| 2025-12-04T12:33 | 18571 | 70 | 279 | 5 | ||
| 2025-12-04T12:33 | 18613 | 70 | -77.5 | |||
| 2025-12-04T12:34 | 18796 | 68 | 213 | 5 | ||
| 2025-12-04T12:34 | 18908 | 66 | 224 | 7 | ||
| 2025-12-04T12:34 | 18932 | 66 | -78.6 | |||
| 2025-12-04T12:35 | 19064 | 65 | -78.0 | |||
| 2025-12-04T12:35 | 19073 | 64 | 237 | 7 | ||
| 2025-12-04T12:35 | 19155 | 64 | -76.0 | |||
| 2025-12-04T12:35 | 19247 | 63 | 301 | 12 | ||
| 2025-12-04T12:36 | 19359 | 61 | -73.7 | |||
| 2025-12-04T12:36 | 19417 | 61 | -71.0 | |||
| 2025-12-04T12:36 | 19427 | 61 | 263 | 9 | ||
| 2025-12-04T12:37 | 19635 | 59 | 290 | 9 | ||
| 2025-12-04T12:37 | 19676 | 58 | -70.2 | 329 | 9 | |
| 2025-12-04T23:31 | 8 | 1022 | 20.3 | 12.5 | 20 | 3 |
| 2025-12-04T23:31 | 18 | 1020 | 80 | 3 | ||
| 2025-12-04T23:31 | 37 | 1018 | 19.9 | 11.7 | ||
| 2025-12-04T23:32 | 187 | 1001 | 19.7 | 10.4 | ||
| 2025-12-04T23:32 | 296 | 988 | 45 | 8 | ||
| 2025-12-04T23:33 | 501 | 964 | 52 | 8 | ||
| 2025-12-04T23:34 | 825 | 928 | 50 | 8 | ||
| 2025-12-04T23:34 | 1023 | 907 | 11.9 | 7.6 | ||
| 2025-12-04T23:35 | 1155 | 892 | 58 | 8 | ||
| 2025-12-04T23:35 | 1220 | 886 | 10.8 | 4.9 | ||
| 2025-12-04T23:35 | 1408 | 866 | 57 | 7 | ||
| 2025-12-04T23:36 | 1645 | 841 | 7.4 | 3.8 | ||
| 2025-12-04T23:36 | 1699 | 836 | 57 | 6 | ||
| 2025-12-04T23:37 | 1794 | 826 | 45 | 6 | ||
| 2025-12-04T23:37 | 2049 | 801 | 35 | 8 | ||
| 2025-12-04T23:38 | 2251 | 781 | 2.3 | 2.2 | ||
| 2025-12-04T23:38 | 2384 | 769 | 17 | 6 | ||
| 2025-12-04T23:39 | 2421 | 765 | 1.5 | 0.8 | ||
| 2025-12-04T23:39 | 2493 | 758 | 3.1 | -0.9 | 332 | 9 |
| 2025-12-04T23:39 | 2523 | 755 | 3.1 | -4.4 | ||
| 2025-12-04T23:39 | 2553 | 753 | 3.5 | -5.7 | ||
| 2025-12-04T23:39 | 2608 | 748 | 4.0 | -4.5 | ||
| 2025-12-04T23:39 | 2633 | 745 | 4.4 | -4.3 | ||
| 2025-12-04T23:40 | 2774 | 732 | 330 | 8 | ||
| 2025-12-04T23:40 | 2794 | 731 | 2.9 | -0.6 | ||
| 2025-12-04T23:40 | 2979 | 714 | 2.3 | -5.1 | ||
| 2025-12-04T23:41 | 3051 | 708 | 1.9 | -5.5 | ||
| 2025-12-04T23:41 | 3077 | 705 | 315 | 4 | ||
| 2025-12-04T23:41 | 3114 | 702 | 1.5 | -4.8 | ||
| 2025-12-04T23:41 | 3188 | 696 | 298 | 5 | ||
| 2025-12-04T23:42 | 3334 | 683 | 0.4 | -7.1 | ||
| 2025-12-04T23:42 | 3487 | 670 | 277 | 10 | ||
| 2025-12-04T23:42 | 3524 | 667 | 0.7 | -10.8 | ||
| 2025-12-04T23:42 | 3603 | 661 | 282 | 12 | ||
| 2025-12-04T23:43 | 3632 | 658 | 0.7 | -14.1 | ||
| 2025-12-04T23:43 | 3662 | 656 | 2.8 | -20.6 | ||
| 2025-12-04T23:43 | 3759 | 648 | 3.7 | -27.6 | ||
| 2025-12-04T23:43 | 3802 | 645 | 289 | 13 | ||
| 2025-12-04T23:43 | 3884 | 638 | 4.6 | -31.9 | ||
| 2025-12-04T23:44 | 3945 | 633 | 277 | 16 | ||
| 2025-12-04T23:44 | 4223 | 612 | 3.1 | -35.3 | ||
| 2025-12-04T23:45 | 4295 | 607 | 267 | 17 | ||
| 2025-12-04T23:45 | 4429 | 597 | 2.1 | -38.9 | ||
| 2025-12-04T23:46 | 4636 | 581 | 1.3 | -43.3 | ||
| 2025-12-04T23:46 | 4660 | 580 | 258 | 18 | ||
| 2025-12-04T23:47 | 4974 | 557 | 0.4 | -50.1 | ||
| 2025-12-04T23:47 | 5014 | 555 | 264 | 18 | ||
| 2025-12-04T23:48 | 5349 | 532 | 267 | 19 | ||
| 2025-12-04T23:48 | 5392 | 529 | -2.0 | -51.6 | ||
| 2025-12-04T23:48 | 5556 | 518 | -2.5 | -33.7 | ||
| 2025-12-04T23:49 | 5669 | 511 | 271 | 21 | ||
| 2025-12-04T23:49 | 5674 | 510 | -3.3 | -30.7 | ||
| 2025-12-04T23:49 | 5875 | 498 | -4.9 | -29.1 | ||
| 2025-12-04T23:49 | 5921 | 495 | 269 | 22 | ||
| 2025-12-04T23:50 | 6036 | 487 | -5.5 | -36.0 | ||
| 2025-12-04T23:50 | 6174 | 479 | 273 | 27 | ||
| 2025-12-04T23:50 | 6227 | 476 | -6.6 | -34.3 | ||
| 2025-12-04T23:51 | 6293 | 472 | -7.0 | -27.4 | ||
| 2025-12-04T23:51 | 6519 | 458 | -8.5 | -26.0 | 263 | 28 |
| 2025-12-04T23:52 | 6783 | 443 | -10.8 | -25.8 | ||
| 2025-12-04T23:52 | 6829 | 440 | -11.0 | -29.6 | ||
| 2025-12-04T23:52 | 6852 | 439 | 266 | 29 | ||
| 2025-12-04T23:52 | 6962 | 432 | -11.9 | -26.0 | ||
| 2025-12-04T23:53 | 7021 | 429 | -11.5 | -39.3 | ||
| 2025-12-04T23:53 | 7201 | 419 | 258 | 31 | ||
| 2025-12-04T23:54 | 7378 | 410 | -14.4 | -40.4 | ||
| 2025-12-04T23:54 | 7503 | 403 | 258 | 32 | ||
| 2025-12-04T23:54 | 7584 | 398 | -16.0 | -37.4 | ||
| 2025-12-04T23:55 | 7800 | 387 | 257 | 32 | ||
| 2025-12-04T23:55 | 7847 | 385 | -18.6 | -36.0 | ||
| 2025-12-04T23:56 | 8105 | 371 | -20.6 | -37.8 | 257 | 31 |
| 2025-12-04T23:56 | 8177 | 368 | -20.3 | -41.7 | ||
| 2025-12-04T23:57 | 8323 | 361 | -21.5 | -38.0 | ||
| 2025-12-04T23:57 | 8420 | 356 | 258 | 31 | ||
| 2025-12-04T23:58 | 8615 | 347 | -23.9 | -38.8 | ||
| 2025-12-04T23:58 | 8684 | 343 | 259 | 33 | ||
| 2025-12-04T23:59 | 8799 | 338 | -24.4 | -45.7 | ||
| 2025-12-04T23:59 | 8943 | 331 | 260 | 33 | ||
| 2025-12-05T00:00 | 9175 | 321 | 257 | 33 | ||
| 2025-12-05T00:00 | 9203 | 320 | -27.8 | -48.5 | ||
| 2025-12-05T00:01 | 9327 | 314 | -28.6 | -53.8 | ||
| 2025-12-05T00:01 | 9425 | 310 | 259 | 31 | ||
| 2025-12-05T00:02 | 9614 | 302 | -30.2 | -56.3 | ||
| 2025-12-05T00:02 | 9660 | 300 | 258 | 32 | ||
| 2025-12-05T00:03 | 9893 | 290 | 258 | 33 | ||
| 2025-12-05T00:04 | 10008 | 285 | -31.8 | -62.9 | ||
| 2025-12-05T00:04 | 10143 | 280 | 260 | 35 | ||
| 2025-12-05T00:04 | 10199 | 278 | -32.4 | -63.4 | ||
| 2025-12-05T00:05 | 10414 | 269 | 259 | 34 | ||
| 2025-12-05T00:06 | 10700 | 259 | 260 | 34 | ||
| 2025-12-05T00:07 | 10808 | 255 | -36.9 | -64.6 | ||
| 2025-12-05T00:07 | 10998 | 248 | 256 | 34 | ||
| 2025-12-05T00:08 | 11184 | 241 | -40.0 | -68.9 | ||
| 2025-12-05T00:08 | 11287 | 237 | 253 | 35 | ||
| 2025-12-05T00:09 | 11560 | 228 | 258 | 37 | ||
| 2025-12-05T00:10 | 11853 | 218 | 256 | 37 | ||
| 2025-12-05T00:10 | 11909 | 216 | -46.4 | |||
| 2025-12-05T00:11 | 12128 | 209 | 256 | 36 | ||
| 2025-12-05T00:12 | 12373 | 202 | 256 | 36 | ||
| 2025-12-05T00:13 | 12590 | 195 | -51.8 | |||
| 2025-12-05T00:13 | 12607 | 194 | 253 | 35 | ||
| 2025-12-05T00:14 | 12921 | 185 | -54.1 | 242 | 35 | |
| 2025-12-05T00:15 | 13218 | 177 | 238 | 34 | ||
| 2025-12-05T00:16 | 13484 | 169 | 244 | 35 | ||
| 2025-12-05T00:17 | 13759 | 162 | 246 | 33 | ||
| 2025-12-05T00:18 | 14017 | 155 | -64.0 | |||
| 2025-12-05T00:18 | 14031 | 155 | 247 | 33 | ||
| 2025-12-05T00:19 | 14304 | 148 | 245 | 30 | ||
| 2025-12-05T00:20 | 14570 | 142 | 247 | 30 | ||
| 2025-12-05T00:21 | 14844 | 135 | 251 | 31 | ||
| 2025-12-05T00:22 | 15124 | 129 | 249 | 31 | ||
| 2025-12-05T00:22 | 15161 | 128 | -74.2 | |||
| 2025-12-05T00:23 | 15408 | 123 | 253 | 32 | ||
| 2025-12-05T00:24 | 15698 | 117 | 255 | 33 | ||
| 2025-12-05T00:25 | 15869 | 113 | -80.4 | |||
| 2025-12-05T00:25 | 15939 | 112 | 263 | 32 | ||
| 2025-12-05T00:25 | 16053 | 110 | -80.0 | |||
| 2025-12-05T00:26 | 16166 | 108 | 271 | 29 | ||
| 2025-12-05T00:26 | 16175 | 107 | -79.9 | |||
| 2025-12-05T00:26 | 16286 | 105 | -77.9 | |||
| 2025-12-05T00:27 | 16446 | 103 | 284 | 26 | ||
| 2025-12-05T00:27 | 16503 | 102 | -79.5 | |||
| 2025-12-05T00:28 | 16713 | 98 | 276 | 18 | ||
| 2025-12-05T00:28 | 16763 | 97 | -78.4 | |||
| 2025-12-05T00:29 | 16969 | 94 | -78.8 | |||
| 2025-12-05T00:29 | 16998 | 93 | 265 | 15 | ||
| 2025-12-05T00:30 | 17300 | 88 | 260 | 17 | ||
| 2025-12-05T00:31 | 17612 | 83 | 289 | 16 | ||
| 2025-12-05T00:31 | 17713 | 82 | -83.8 | |||
| 2025-12-05T00:32 | 17802 | 81 | 299 | 13 | ||
| 2025-12-05T00:32 | 17950 | 79 | -80.2 | |||
| 2025-12-05T00:32 | 17964 | 78 | 317 | 10 | ||
| 2025-12-05T00:33 | 18133 | 76 | 320 | 8 | ||
| 2025-12-05T00:33 | 18176 | 75 | -80.0 | |||
| 2025-12-05T00:33 | 18343 | 73 | -79.8 | |||
| 2025-12-05T00:33 | 18375 | 73 | 328 | 10 | ||
| 2025-12-05T00:34 | 18502 | 71 | -76.4 | |||
| 2025-12-05T00:34 | 18525 | 71 | 1 | 8 | ||
| 2025-12-05T00:34 | 18676 | 69 | 4 | 5 | ||
| 2025-12-05T00:35 | 18850 | 67 | 299 | 2 | ||
| 2025-12-05T00:36 | 18995 | 65 | -77.6 | |||
| 2025-12-05T00:36 | 19058 | 65 | 250 | 7 | ||
| 2025-12-05T00:36 | 19221 | 63 | 276 | 5 | ||
| 2025-12-05T00:37 | 19295 | 62 | -76.8 | |||
| 2025-12-05T00:37 | 19415 | 61 | 10 | 5 | ||
| 2025-12-05T00:37 | 19505 | 60 | -74.4 | |||
| 2025-12-05T00:37 | 19512 | 60 | 10 | 4 | ||
| 2025-12-05T00:38 | 19640 | 58 | 311 | 5 | ||
| 2025-12-05T00:38 | 19833 | 57 | 323 | 9 | ||
| 2025-12-05T00:39 | 19854 | 56 | -75.0 | |||
| 2025-12-05T00:39 | 20021 | 55 | -71.3 | |||
| 2025-12-05T00:39 | 20031 | 55 | 2 | 11 | ||
| 2025-12-05T00:39 | 20139 | 54 | 4 | 10 | ||
| 2025-12-05T00:40 | 20174 | 53 | -70.8 | |||
| 2025-12-05T00:40 | 20243 | 53 | -69.8 | |||
| 2025-12-05T00:40 | 20277 | 52 | 341 | 8 | ||
| 2025-12-05T00:40 | 20439 | 51 | 350 | 9 | ||
| 2025-12-05T00:40 | 20449 | 51 | -66.4 | |||
| 2025-12-05T00:41 | 20533 | 50 | -65.3 | |||
| 2025-12-05T00:41 | 20554 | 50 | 4 | 6 | ||
| 2025-12-05T00:41 | 20680 | 49 | 13 | 4 | ||
| 2025-12-05T00:41 | 20767 | 48 | 15 | 2 | ||
| 2025-12-05T00:42 | 21064 | 46 | 57 | 2 | ||
| 2025-12-05T00:43 | 21169 | 45 | 107 | 4 | ||
| 2025-12-05T00:43 | 21224 | 45 | -65.8 | |||
| 2025-12-05T00:44 | 21457 | 43 | 146 | 2 | ||
| 2025-12-05T00:44 | 21614 | 42 | -66.5 | |||
| 2025-12-05T00:44 | 21685 | 42 | 345 | 3 | ||
| 2025-12-05T00:45 | 21822 | 41 | 7 | 7 | ||
| 2025-12-05T00:45 | 21930 | 40 | -60.9 | |||
| 2025-12-05T00:45 | 22024 | 39 | 29 | 7 | ||
| 2025-12-05T00:46 | 22217 | 38 | 63 | 5 | ||
| 2025-12-05T00:47 | 22513 | 36 | 21 | 8 | ||
| 2025-12-05T00:48 | 22701 | 35 | -63.5 | |||
| 2025-12-05T00:48 | 22806 | 35 | 42 | 10 | ||
| 2025-12-05T00:49 | 23060 | 33 | -61.8 | |||
| 2025-12-05T00:49 | 23138 | 33 | 55 | 10 | ||
| 2025-12-05T00:49 | 23252 | 32 | -59.7 | |||
| 2025-12-05T00:50 | 23488 | 31 | 97 | 10 | ||
| 2025-12-05T00:51 | 23673 | 30 | -59.5 | |||
| 2025-12-05T00:51 | 23842 | 29 | 69 | 11 | ||
| 2025-12-05T00:52 | 24197 | 28 | -58.1 | 92 | 13 | |
| 2025-12-05T00:53 | 24357 | 27 | 81 | 11 | ||
| 2025-12-05T00:53 | 24548 | 26 | 72 | 14 | ||
| 2025-12-05T00:54 | 24894 | 25 | 70 | 18 | ||
| 2025-12-05T00:54 | 24945 | 25 | -56.8 | |||
| 2025-12-05T00:55 | 25262 | 23 | 76 | 18 | ||
| 2025-12-05T00:56 | 25396 | 23 | -59.0 | |||
| 2025-12-05T00:56 | 25507 | 23 | -57.8 | 66 | 13 | |
| 2025-12-05T12:30 | 8 | 1019 | 20.7 | 15.3 | 50 | 6 |
| 2025-12-05T12:30 | 15 | 1018 | 20.8 | 15.6 | 51 | 1 |
| 2025-12-05T12:30 | 47 | 1015 | 66 | 2 | ||
| 2025-12-05T12:30 | 72 | 1012 | 33 | 10 | ||
| 2025-12-05T12:30 | 108 | 1008 | 20.4 | 15.0 | ||
| 2025-12-05T12:31 | 191 | 998 | 61 | 10 | ||
| 2025-12-05T12:32 | 513 | 961 | 55 | 13 | ||
| 2025-12-05T12:32 | 683 | 942 | 15.4 | 12.0 | ||
| 2025-12-05T12:32 | 794 | 930 | 67 | 12 | ||
| 2025-12-05T12:33 | 986 | 909 | 76 | 10 | ||
| 2025-12-05T12:34 | 1298 | 876 | 90 | 9 | ||
| 2025-12-05T12:34 | 1326 | 873 | 10.6 | 8.4 | ||
| 2025-12-05T12:35 | 1619 | 843 | 75 | 7 | ||
| 2025-12-05T12:35 | 1699 | 835 | 8.0 | 6.8 | ||
| 2025-12-05T12:36 | 1858 | 819 | 78 | 7 | ||
| 2025-12-05T12:36 | 2067 | 798 | 5.4 | 4.7 | ||
| 2025-12-05T12:36 | 2083 | 797 | 51 | 7 | ||
| 2025-12-05T12:37 | 2110 | 794 | 5.3 | 3.5 | ||
| 2025-12-05T12:37 | 2176 | 788 | 5.8 | 3.5 | ||
| 2025-12-05T12:37 | 2338 | 772 | 45 | 5 | ||
| 2025-12-05T12:37 | 2367 | 769 | 4.4 | 1.8 | ||
| 2025-12-05T12:38 | 2531 | 754 | 3.3 | 0.7 | ||
| 2025-12-05T12:38 | 2542 | 753 | 13 | 3 | ||
| 2025-12-05T12:38 | 2582 | 749 | 4.8 | -0.8 | ||
| 2025-12-05T12:38 | 2609 | 747 | 218 | 1 | ||
| 2025-12-05T12:38 | 2725 | 736 | 341 | 3 | ||
| 2025-12-05T12:39 | 2834 | 726 | 314 | 5 | ||
| 2025-12-05T12:39 | 2996 | 712 | 307 | 6 | ||
| 2025-12-05T12:40 | 3141 | 699 | 0.2 | -2.0 | ||
| 2025-12-05T12:40 | 3246 | 690 | 296 | 7 | ||
| 2025-12-05T12:41 | 3409 | 676 | 311 | 9 | ||
| 2025-12-05T12:41 | 3577 | 662 | 292 | 9 | ||
| 2025-12-05T12:41 | 3614 | 659 | -3.6 | -4.0 | ||
| 2025-12-05T12:42 | 3799 | 644 | -4.7 | -5.7 | 286 | 9 |
| 2025-12-05T12:42 | 3852 | 639 | -3.8 | -8.8 | ||
| 2025-12-05T12:42 | 3901 | 635 | -1.8 | -16.7 | ||
| 2025-12-05T12:42 | 3938 | 632 | 271 | 21 | ||
| 2025-12-05T12:42 | 3943 | 632 | -0.2 | -20.5 | ||
| 2025-12-05T12:42 | 4021 | 626 | 6.6 | -22.9 | ||
| 2025-12-05T12:43 | 4093 | 621 | 266 | 19 | ||
| 2025-12-05T12:43 | 4180 | 614 | 6.7 | -28.5 | ||
| 2025-12-05T12:43 | 4358 | 601 | 5.8 | -46.7 | ||
| 2025-12-05T12:44 | 4453 | 594 | 260 | 18 | ||
| 2025-12-05T12:45 | 4821 | 567 | 260 | 18 | ||
| 2025-12-05T12:45 | 5046 | 552 | 1.3 | -43.3 | ||
| 2025-12-05T12:46 | 5203 | 541 | 266 | 21 | ||
| 2025-12-05T12:47 | 5561 | 517 | -2.5 | -45.8 | ||
| 2025-12-05T12:47 | 5594 | 515 | 255 | 22 | ||
| 2025-12-05T12:47 | 5814 | 501 | -4.7 | -36.9 | ||
| 2025-12-05T12:48 | 5935 | 493 | -5.7 | -27.6 | ||
| 2025-12-05T12:48 | 5985 | 490 | 261 | 25 | ||
| 2025-12-05T12:48 | 6169 | 479 | -6.9 | -30.8 | ||
| 2025-12-05T12:49 | 6345 | 468 | 263 | 30 | ||
| 2025-12-05T12:49 | 6596 | 453 | -10.8 | -26.6 | ||
| 2025-12-05T12:50 | 6711 | 446 | 262 | 29 | ||
| 2025-12-05T12:50 | 6762 | 443 | -12.1 | -28.2 | ||
| 2025-12-05T12:50 | 6877 | 437 | -13.0 | -28.9 | ||
| 2025-12-05T12:51 | 7023 | 428 | -13.1 | -39.4 | ||
| 2025-12-05T12:51 | 7059 | 426 | 256 | 31 | ||
| 2025-12-05T12:51 | 7320 | 412 | -14.8 | -35.7 | ||
| 2025-12-05T12:52 | 7434 | 406 | 256 | 31 | ||
| 2025-12-05T12:52 | 7683 | 393 | -16.7 | -38.0 | ||
| 2025-12-05T12:53 | 7789 | 387 | 260 | 34 | ||
| 2025-12-05T12:53 | 7961 | 378 | -18.8 | -39.7 | ||
| 2025-12-05T12:54 | 8117 | 371 | -19.1 | -47.8 | ||
| 2025-12-05T12:54 | 8140 | 369 | 262 | 33 | ||
| 2025-12-05T12:55 | 8428 | 355 | -21.3 | -46.9 | ||
| 2025-12-05T12:55 | 8472 | 353 | 263 | 32 | ||
| 2025-12-05T12:55 | 8709 | 342 | -22.7 | -49.2 | ||
| 2025-12-05T12:56 | 8804 | 338 | 259 | 35 | ||
| 2025-12-05T12:57 | 9119 | 323 | 263 | 34 | ||
| 2025-12-05T12:57 | 9254 | 317 | -26.6 | -53.5 | ||
| 2025-12-05T12:58 | 9420 | 310 | 264 | 34 | ||
| 2025-12-05T12:58 | 9609 | 302 | -29.8 | -57.5 | ||
| 2025-12-05T12:59 | 9696 | 298 | 261 | 36 | ||
| 2025-12-05T12:59 | 9898 | 290 | -30.4 | -59.7 | ||
| 2025-12-05T13:00 | 9961 | 287 | 258 | 35 | ||
| 2025-12-05T13:01 | 10241 | 276 | 258 | 35 | ||
| 2025-12-05T13:02 | 10534 | 265 | 260 | 34 | ||
| 2025-12-05T13:02 | 10649 | 261 | -35.9 | -65.9 | ||
| 2025-12-05T13:03 | 10838 | 254 | 253 | 34 | ||
| 2025-12-05T13:04 | 11138 | 243 | 254 | 34 | ||
| 2025-12-05T13:04 | 11162 | 242 | -40.0 | -68.9 | ||
| 2025-12-05T13:05 | 11444 | 232 | 253 | 34 | ||
| 2025-12-05T13:06 | 11739 | 222 | 249 | 34 | ||
| 2025-12-05T13:07 | 12007 | 213 | 244 | 34 | ||
| 2025-12-05T13:08 | 12288 | 204 | 242 | 35 | ||
| 2025-12-05T13:08 | 12316 | 204 | -49.8 | |||
| 2025-12-05T13:09 | 12606 | 195 | 239 | 36 | ||
| 2025-12-05T13:10 | 12883 | 186 | 245 | 37 | ||
| 2025-12-05T13:11 | 13190 | 178 | 241 | 37 | ||
| 2025-12-05T13:11 | 13327 | 174 | -58.2 | |||
| 2025-12-05T13:12 | 13501 | 169 | 238 | 37 | ||
| 2025-12-05T13:13 | 13831 | 160 | 231 | 39 | ||
| 2025-12-05T13:14 | 14163 | 152 | 235 | 38 | ||
| 2025-12-05T13:15 | 14459 | 145 | 239 | 35 | ||
| 2025-12-05T13:15 | 14561 | 142 | -68.5 | |||
| 2025-12-05T13:16 | 14746 | 138 | 239 | 35 | ||
| 2025-12-05T13:17 | 15023 | 131 | 239 | 35 | ||
| 2025-12-05T13:17 | 15228 | 127 | -74.4 | |||
| 2025-12-05T13:18 | 15325 | 125 | 247 | 32 | ||
| 2025-12-05T13:18 | 15370 | 124 | -74.9 | |||
| 2025-12-05T13:19 | 15653 | 118 | 264 | 30 | ||
| 2025-12-05T13:19 | 15835 | 114 | -77.5 | |||
| 2025-12-05T13:20 | 15943 | 112 | 263 | 27 | ||
| 2025-12-05T13:20 | 15948 | 112 | -77.0 | |||
| 2025-12-05T13:21 | 16218 | 107 | 270 | 23 | ||
| 2025-12-05T13:21 | 16227 | 107 | -77.2 | |||
| 2025-12-05T13:22 | 16499 | 102 | 260 | 20 | ||
| 2025-12-05T13:23 | 16777 | 97 | 267 | 19 | ||
| 2025-12-05T13:23 | 16842 | 96 | -79.0 | |||
| 2025-12-05T13:24 | 17055 | 92 | 284 | 18 | ||
| 2025-12-05T13:24 | 17272 | 89 | 273 | 15 | ||
| 2025-12-05T13:25 | 17446 | 86 | 264 | 15 | ||
| 2025-12-05T13:25 | 17480 | 86 | -80.4 | |||
| 2025-12-05T13:26 | 17579 | 84 | 246 | 11 | ||
| 2025-12-05T13:26 | 17698 | 82 | -79.8 | |||
| 2025-12-05T13:26 | 17726 | 82 | 235 | 10 | ||
| 2025-12-05T13:26 | 17801 | 81 | -78.9 | |||
| 2025-12-05T13:27 | 18023 | 78 | 189 | 6 | ||
| 2025-12-05T13:27 | 18134 | 76 | -79.9 | |||
| 2025-12-05T13:28 | 18157 | 76 | 187 | 7 | ||
| 2025-12-05T13:28 | 18247 | 75 | -77.3 | |||
| 2025-12-05T13:28 | 18263 | 75 | 138 | 7 | ||
| 2025-12-05T13:29 | 18490 | 72 | 154 | 9 | ||
| 2025-12-05T13:29 | 18596 | 70 | -77.7 | |||
| 2025-12-05T13:30 | 18778 | 68 | 150 | 6 | ||
| 2025-12-05T13:30 | 18946 | 66 | 110 | 6 | ||
| 2025-12-05T13:31 | 19044 | 65 | 81 | 8 | ||
| 2025-12-05T13:31 | 19178 | 64 | -78.1 | |||
| 2025-12-05T13:32 | 19332 | 62 | 106 | 12 | ||
| 2025-12-05T13:32 | 19361 | 62 | -74.9 | |||
| 2025-12-05T13:32 | 19543 | 60 | -74.7 | |||
| 2025-12-05T13:33 | 19600 | 59 | 116 | 10 | ||
| 2025-12-05T13:33 | 19801 | 57 | 157 | 8 | ||
| 2025-12-05T13:34 | 19935 | 56 | 166 | 5 | ||
| 2025-12-05T13:34 | 20072 | 55 | -74.4 | |||
| 2025-12-05T13:34 | 20103 | 54 | 240 | 4 | ||
| 2025-12-05T13:34 | 20169 | 54 | 231 | 1 | ||
| 2025-12-05T13:35 | 20249 | 53 | -70.3 | |||
| 2025-12-05T13:35 | 20294 | 53 | 51 | 3 | ||
| 2025-12-05T13:35 | 20406 | 52 | -69.6 | 109 | 4 | |
| 2025-12-05T13:36 | 20513 | 51 | 146 | 5 | ||
| 2025-12-05T13:36 | 20596 | 50 | 145 | 3 | ||
| 2025-12-05T13:36 | 20608 | 50 | -66.8 | |||
| 2025-12-05T13:36 | 20757 | 49 | -64.6 | |||
| 2025-12-05T13:37 | 20897 | 48 | 0 | 0 | ||
| 2025-12-05T13:37 | 21000 | 47 | 38 | 3 | ||
| 2025-12-05T13:38 | 21121 | 46 | -62.9 | |||
| 2025-12-05T13:38 | 21230 | 45 | 24 | 7 | ||
| 2025-12-05T13:39 | 21551 | 43 | 35 | 6 | ||
| 2025-12-05T13:39 | 21624 | 42 | -61.2 | |||
| 2025-12-05T13:39 | 21728 | 42 | 47 | 6 | ||
| 2025-12-05T13:40 | 21830 | 41 | 102 | 6 | ||
| 2025-12-05T13:40 | 21925 | 40 | 85 | 4 | ||
| 2025-12-05T13:40 | 22003 | 40 | 27 | 5 | ||
| 2025-12-05T13:41 | 22096 | 39 | 40 | 6 | ||
| 2025-12-05T13:41 | 22276 | 38 | 119 | 8 | ||
| 2025-12-05T13:41 | 22361 | 38 | -59.4 | |||
| 2025-12-05T13:42 | 22443 | 37 | 115 | 6 | ||
| 2025-12-05T13:42 | 22562 | 36 | 42 | 6 | ||
| 2025-12-05T13:43 | 22882 | 35 | 50 | 8 | ||
| 2025-12-05T13:44 | 23199 | 33 | 54 | 8 | ||
| 2025-12-05T13:45 | 23396 | 32 | 73 | 11 | ||
| 2025-12-05T13:45 | 23453 | 32 | -59.0 | |||
| 2025-12-05T13:45 | 23515 | 31 | 58 | 12 | ||
| 2025-12-05T13:46 | 23718 | 30 | 86 | 13 | ||
| 2025-12-05T13:46 | 23761 | 30 | -59.3 | |||
| 2025-12-05T13:47 | 24056 | 29 | 101 | 12 | ||
| 2025-12-05T13:47 | 24300 | 28 | -60.9 | 56 | 8 | |
| 2025-12-05T13:48 | 24553 | 26 | 70 | 10 | ||
| 2025-12-05T13:49 | 24795 | 25 | 98 | 8 | ||
| 2025-12-05T13:50 | 25145 | 24 | 68 | 6 | ||
| 2025-12-05T13:51 | 25358 | 23 | -59.4 | |||
| 2025-12-05T13:51 | 25465 | 23 | 55 | 6 | ||
| 2025-12-05T13:51 | 25576 | 22 | -58.5 | |||
| 2025-12-05T13:52 | 25808 | 22 | 96 | 7 | ||
| 2025-12-05T13:53 | 26129 | 21 | -58.6 | 83 | 8 | |
| 2025-12-05T23:31 | 8 | 1020 | 21.8 | 14.0 | 60 | 5 |
| 2025-12-05T23:31 | 12 | 1019 | 21.8 | 14.0 | 80 | 1 |
| 2025-12-05T23:31 | 68 | 1013 | 57 | 7 | ||
| 2025-12-05T23:32 | 363 | 979 | 68 | 9 | ||
| 2025-12-05T23:33 | 693 | 941 | 64 | 8 | ||
| 2025-12-05T23:34 | 850 | 924 | 14.1 | 11.8 | ||
| 2025-12-05T23:34 | 993 | 909 | 62 | 10 | ||
| 2025-12-05T23:34 | 1035 | 904 | 12.5 | 10.7 | ||
| 2025-12-05T23:35 | 1304 | 876 | 57 | 10 | ||
| 2025-12-05T23:35 | 1416 | 864 | 9.4 | 8.0 | ||
| 2025-12-05T23:36 | 1601 | 845 | 8.1 | 6.7 | ||
| 2025-12-05T23:36 | 1629 | 842 | 49 | 9 | ||
| 2025-12-05T23:36 | 1689 | 836 | 7.8 | 5.6 | ||
| 2025-12-05T23:37 | 1820 | 823 | 7.9 | 2.6 | ||
| 2025-12-05T23:37 | 1972 | 808 | 33 | 10 | ||
| 2025-12-05T23:38 | 2167 | 789 | 33 | 6 | ||
| 2025-12-05T23:38 | 2249 | 781 | 4.5 | 3.2 | ||
| 2025-12-05T23:38 | 2362 | 770 | 37 | 3 | ||
| 2025-12-05T23:39 | 2501 | 757 | 301 | 3 | ||
| 2025-12-05T23:39 | 2568 | 751 | 3.7 | 3.3 | ||
| 2025-12-05T23:39 | 2653 | 743 | 292 | 6 | ||
| 2025-12-05T23:40 | 2985 | 713 | 272 | 8 | ||
| 2025-12-05T23:41 | 3144 | 699 | 240 | 6 | ||
| 2025-12-05T23:41 | 3333 | 683 | 254 | 9 | ||
| 2025-12-05T23:42 | 3560 | 664 | 257 | 12 | ||
| 2025-12-05T23:42 | 3577 | 662 | -1.6 | -1.7 | ||
| 2025-12-05T23:43 | 3862 | 639 | 278 | 14 | ||
| 2025-12-05T23:43 | 4038 | 625 | -4.1 | -5.3 | ||
| 2025-12-05T23:43 | 4044 | 625 | 272 | 16 | ||
| 2025-12-05T23:43 | 4078 | 622 | -3.3 | -10.0 | ||
| 2025-12-05T23:44 | 4142 | 617 | -1.6 | -15.1 | ||
| 2025-12-05T23:44 | 4182 | 614 | 0.6 | -20.4 | ||
| 2025-12-05T23:44 | 4187 | 613 | 280 | 24 | ||
| 2025-12-05T23:44 | 4232 | 610 | 1.8 | -22.1 | ||
| 2025-12-05T23:44 | 4328 | 603 | 2.2 | -27.5 | ||
| 2025-12-05T23:44 | 4393 | 598 | 2.5 | -31.6 | ||
| 2025-12-05T23:45 | 4455 | 593 | 275 | 25 | ||
| 2025-12-05T23:45 | 4461 | 593 | 2.8 | -35.5 | ||
| 2025-12-05T23:45 | 4670 | 578 | 2.5 | -42.5 | ||
| 2025-12-05T23:46 | 4805 | 568 | 263 | 27 | ||
| 2025-12-05T23:46 | 4865 | 564 | 2.8 | -48.6 | ||
| 2025-12-05T23:46 | 4938 | 559 | 2.4 | -48.8 | ||
| 2025-12-05T23:46 | 5031 | 553 | 2.1 | -42.7 | ||
| 2025-12-05T23:47 | 5108 | 547 | 263 | 28 | ||
| 2025-12-05T23:47 | 5256 | 537 | 1.4 | -49.5 | ||
| 2025-12-05T23:48 | 5418 | 527 | 0.9 | -49.8 | ||
| 2025-12-05T23:48 | 5424 | 526 | 266 | 29 | ||
| 2025-12-05T23:49 | 5783 | 503 | 265 | 28 | ||
| 2025-12-05T23:49 | 5905 | 495 | -3.4 | -52.5 | ||
| 2025-12-05T23:49 | 6070 | 485 | -4.3 | -53.1 | ||
| 2025-12-05T23:50 | 6150 | 480 | 264 | 27 | ||
| 2025-12-05T23:50 | 6310 | 470 | -5.6 | -53.9 | ||
| 2025-12-05T23:51 | 6501 | 459 | 260 | 29 | ||
| 2025-12-05T23:51 | 6525 | 458 | -6.5 | -48.5 | ||
| 2025-12-05T23:52 | 6862 | 438 | -9.6 | -39.1 | ||
| 2025-12-05T23:52 | 6876 | 437 | 262 | 31 | ||
| 2025-12-05T23:52 | 7201 | 419 | -12.0 | -39.7 | ||
| 2025-12-05T23:53 | 7271 | 415 | 249 | 28 | ||
| 2025-12-05T23:53 | 7595 | 398 | -15.1 | -39.1 | ||
| 2025-12-05T23:54 | 7647 | 395 | 245 | 29 | ||
| 2025-12-05T23:54 | 7920 | 381 | -17.9 | -44.3 | ||
| 2025-12-05T23:55 | 8006 | 377 | 258 | 29 | ||
| 2025-12-05T23:56 | 8349 | 360 | 254 | 29 | ||
| 2025-12-05T23:56 | 8542 | 351 | -22.6 | -46.9 | ||
| 2025-12-05T23:57 | 8675 | 344 | 251 | 30 | ||
| 2025-12-05T23:57 | 8976 | 330 | -25.9 | -48.6 | ||
| 2025-12-05T23:58 | 9002 | 329 | 257 | 32 | ||
| 2025-12-05T23:58 | 9240 | 318 | -27.7 | -52.0 | ||
| 2025-12-05T23:59 | 9302 | 316 | 258 | 33 | ||
| 2025-12-06T00:00 | 9625 | 302 | 258 | 32 | ||
| 2025-12-06T00:01 | 9921 | 289 | 263 | 34 | ||
| 2025-12-06T00:02 | 10148 | 280 | 262 | 34 | ||
| 2025-12-06T00:02 | 10321 | 273 | -36.0 | -58.5 | ||
| 2025-12-06T00:03 | 10397 | 270 | 266 | 35 | ||
| 2025-12-06T00:04 | 10689 | 259 | 266 | 37 | ||
| 2025-12-06T00:05 | 10944 | 250 | 263 | 36 | ||
| 2025-12-06T00:05 | 10983 | 248 | -39.7 | -66.7 | ||
| 2025-12-06T00:05 | 11013 | 247 | -40.0 | -66.9 | ||
| 2025-12-06T00:06 | 11207 | 240 | 262 | 36 | ||
| 2025-12-06T00:06 | 11221 | 240 | -41.3 | |||
| 2025-12-06T00:07 | 11486 | 230 | 252 | 37 | ||
| 2025-12-06T00:08 | 11756 | 221 | 253 | 38 | ||
| 2025-12-06T00:09 | 12020 | 213 | 256 | 39 | ||
| 2025-12-06T00:10 | 12264 | 205 | -49.4 | |||
| 2025-12-06T00:10 | 12276 | 204 | 256 | 40 | ||
| 2025-12-06T00:11 | 12569 | 196 | 249 | 40 | ||
| 2025-12-06T00:11 | 12670 | 193 | -52.7 | |||
| 2025-12-06T00:12 | 12931 | 185 | 242 | 39 | ||
| 2025-12-06T00:13 | 13221 | 177 | 239 | 41 | ||
| 2025-12-06T00:14 | 13541 | 168 | 234 | 39 | ||
| 2025-12-06T00:14 | 13817 | 161 | 232 | 38 | ||
| 2025-12-06T00:15 | 14032 | 155 | -64.4 | |||
| 2025-12-06T00:15 | 14090 | 153 | 238 | 38 | ||
| 2025-12-06T00:16 | 14209 | 151 | 242 | 36 | ||
| 2025-12-06T00:17 | 14568 | 142 | 250 | 34 | ||
| 2025-12-06T00:18 | 14852 | 135 | 254 | 33 | ||
| 2025-12-06T00:18 | 14898 | 134 | -70.7 | |||
| 2025-12-06T00:19 | 15129 | 129 | 272 | 29 | ||
| 2025-12-06T00:19 | 15170 | 128 | -71.0 | |||
| 2025-12-06T00:19 | 15355 | 124 | -71.1 | |||
| 2025-12-06T00:20 | 15401 | 123 | 280 | 24 | ||
| 2025-12-06T00:21 | 15683 | 117 | 285 | 18 | ||
| 2025-12-06T00:21 | 15875 | 114 | 276 | 15 | ||
| 2025-12-06T00:21 | 15920 | 113 | -72.8 | |||
| 2025-12-06T00:22 | 16161 | 108 | 265 | 14 | ||
| 2025-12-06T00:23 | 16440 | 103 | 265 | 13 | ||
| 2025-12-06T00:23 | 16460 | 103 | -76.4 | |||
| 2025-12-06T00:24 | 16717 | 98 | 253 | 8 | ||
| 2025-12-06T00:25 | 16894 | 95 | -78.0 | |||
| 2025-12-06T00:25 | 16959 | 94 | 273 | 5 | ||
| 2025-12-06T00:26 | 17201 | 90 | 290 | 5 | ||
| 2025-12-06T00:26 | 17335 | 88 | 274 | 5 | ||
| 2025-12-06T00:27 | 17619 | 84 | 249 | 4 | ||
| 2025-12-06T00:28 | 17694 | 83 | -82.7 | |||
| 2025-12-06T00:28 | 17768 | 82 | 237 | 7 | ||
| 2025-12-06T00:29 | 17928 | 79 | -82.0 | |||
| 2025-12-06T00:29 | 17935 | 79 | 253 | 6 | ||
| 2025-12-06T00:29 | 18070 | 77 | -81.4 | |||
| 2025-12-06T00:29 | 18129 | 76 | 218 | 9 | ||
| 2025-12-06T00:30 | 18431 | 72 | 235 | 16 | ||
| 2025-12-06T00:30 | 18468 | 72 | -83.0 | |||
| 2025-12-06T00:31 | 18577 | 71 | 237 | 11 | ||
| 2025-12-06T00:31 | 18660 | 70 | -80.4 | |||
| 2025-12-06T00:31 | 18675 | 69 | 229 | 7 | ||
| 2025-12-06T00:32 | 18806 | 68 | -78.5 | |||
| 2025-12-06T00:32 | 18876 | 67 | -76.9 | 156 | 12 | |
| 2025-12-06T00:33 | 19130 | 64 | -76.9 | |||
| 2025-12-06T00:33 | 19175 | 64 | 170 | 10 | ||
| 2025-12-06T00:33 | 19331 | 62 | 180 | 4 | ||
| 2025-12-06T00:34 | 19415 | 61 | -74.9 | |||
| 2025-12-06T00:34 | 19434 | 61 | 263 | 4 | ||
| 2025-12-06T00:34 | 19550 | 60 | 313 | 1 | ||
| 2025-12-06T00:34 | 19628 | 59 | 44 | 3 | ||
| 2025-12-06T00:35 | 19760 | 57 | -73.1 | |||
| 2025-12-06T00:35 | 19813 | 57 | 82 | 6 | ||
| 2025-12-06T00:35 | 19973 | 55 | 85 | 12 | ||
| 2025-12-06T00:35 | 19984 | 55 | -71.1 | |||
| 2025-12-06T00:36 | 20091 | 54 | -70.3 | |||
| 2025-12-06T00:36 | 20234 | 53 | 120 | 7 | ||
| 2025-12-06T00:36 | 20322 | 52 | -70.2 | |||
| 2025-12-06T00:37 | 20417 | 51 | -68.2 | |||
| 2025-12-06T00:37 | 20428 | 51 | 128 | 6 | ||
| 2025-12-06T00:37 | 20580 | 50 | 130 | 4 | ||
| 2025-12-06T00:38 | 20730 | 49 | 126 | 5 | ||
| 2025-12-06T00:39 | 21050 | 46 | 121 | 3 | ||
| 2025-12-06T00:39 | 21277 | 45 | 129 | 5 | ||
| 2025-12-06T00:40 | 21427 | 44 | 137 | 5 | ||
| 2025-12-06T00:40 | 21512 | 43 | -65.0 | |||
| 2025-12-06T00:40 | 21568 | 43 | 103 | 1 | ||
| 2025-12-06T00:41 | 21685 | 42 | -64.5 | 31 | 3 | |
| 2025-12-06T00:41 | 21789 | 41 | 71 | 4 | ||
| 2025-12-06T00:41 | 21864 | 41 | -62.3 | |||
| 2025-12-06T00:41 | 21880 | 40 | 117 | 5 | ||
| 2025-12-06T00:42 | 22111 | 39 | 88 | 5 | ||
| 2025-12-06T00:43 | 22439 | 37 | 91 | 8 | ||
| 2025-12-06T00:43 | 22487 | 37 | -63.3 | |||
| 2025-12-06T00:43 | 22607 | 36 | 63 | 7 | ||
| 2025-12-06T00:44 | 22851 | 35 | 87 | 7 | ||
| 2025-12-06T00:44 | 22962 | 34 | -61.4 | |||
| 2025-12-06T00:45 | 23206 | 33 | 68 | 6 | ||
| 2025-12-06T00:45 | 23298 | 32 | -60.9 | |||
| 2025-12-06T00:46 | 23377 | 32 | 67 | 9 | ||
| 2025-12-06T00:46 | 23558 | 31 | -59.0 | |||
| 2025-12-06T00:47 | 23682 | 30 | 83 | 9 | ||
| 2025-12-06T00:47 | 23851 | 29 | -57.1 | |||
| 2025-12-06T00:48 | 24028 | 29 | 63 | 14 | ||
| 2025-12-06T00:48 | 24251 | 28 | 59 | 15 | ||
| 2025-12-06T00:49 | 24462 | 27 | -58.7 | |||
| 2025-12-06T00:49 | 24604 | 26 | 61 | 15 | ||
| 2025-12-06T00:50 | 24952 | 25 | 75 | 16 | ||
| 2025-12-06T00:51 | 25131 | 24 | -57.8 | |||
| 2025-12-06T00:51 | 25305 | 23 | -57.5 | 91 | 12 | |
| 2025-12-06T11:31 | 8 | 1019 | 21.4 | 14.3 | 50 | 4 |
| 2025-12-06T11:31 | 10 | 1019 | 21.5 | 14.7 | 0 | 0 |
| 2025-12-06T11:31 | 54 | 1014 | 46 | 6 | ||
| 2025-12-06T11:32 | 232 | 993 | 20.4 | 14.1 | ||
| 2025-12-06T11:32 | 294 | 986 | 58 | 10 | ||
| 2025-12-06T11:33 | 553 | 957 | 17.5 | 12.4 | ||
| 2025-12-06T11:33 | 605 | 951 | 61 | 12 | ||
| 2025-12-06T11:34 | 907 | 918 | 62 | 10 | ||
| 2025-12-06T11:34 | 1072 | 900 | 13.0 | 8.9 | ||
| 2025-12-06T11:35 | 1130 | 894 | 42 | 10 | ||
| 2025-12-06T11:35 | 1319 | 874 | 42 | 10 | ||
| 2025-12-06T11:36 | 1422 | 863 | 10.5 | 6.3 | ||
| 2025-12-06T11:36 | 1503 | 855 | 10.6 | 5.2 | ||
| 2025-12-06T11:36 | 1570 | 848 | 360 | 8 | ||
| 2025-12-06T11:37 | 1708 | 834 | 10.2 | 3.7 | ||
| 2025-12-06T11:37 | 1776 | 827 | 10.9 | -0.3 | ||
| 2025-12-06T11:37 | 1834 | 822 | 330 | 6 | ||
| 2025-12-06T11:37 | 1888 | 816 | 11.2 | 0.6 | ||
| 2025-12-06T11:37 | 1947 | 811 | 11.3 | 2.1 | ||
| 2025-12-06T11:37 | 2012 | 804 | 325 | 5 | ||
| 2025-12-06T11:38 | 2134 | 792 | 348 | 2 | ||
| 2025-12-06T11:38 | 2275 | 779 | 320 | 3 | ||
| 2025-12-06T11:39 | 2458 | 762 | 7.2 | 0.6 | 352 | 6 |
| 2025-12-06T11:39 | 2520 | 756 | 8.1 | -5.7 | ||
| 2025-12-06T11:39 | 2586 | 750 | 8.3 | -11.6 | ||
| 2025-12-06T11:39 | 2608 | 748 | 354 | 6 | ||
| 2025-12-06T11:40 | 2723 | 738 | 51 | 3 | ||
| 2025-12-06T11:40 | 2991 | 714 | 7.1 | -32.5 | ||
| 2025-12-06T11:41 | 3050 | 709 | 13 | 8 | ||
| 2025-12-06T11:41 | 3345 | 684 | 4.5 | -23.5 | ||
| 2025-12-06T11:42 | 3387 | 680 | 2 | 8 | ||
| 2025-12-06T11:43 | 3745 | 651 | 21 | 6 | ||
| 2025-12-06T11:44 | 4075 | 624 | -2.2 | -27.0 | ||
| 2025-12-06T11:44 | 4092 | 623 | 360 | 6 | ||
| 2025-12-06T11:44 | 4266 | 610 | -2.6 | -39.4 | ||
| 2025-12-06T11:44 | 4365 | 602 | -2.7 | -52.0 | ||
| 2025-12-06T11:45 | 4401 | 599 | 25 | 4 | ||
| 2025-12-06T11:45 | 4512 | 591 | -1.6 | -51.3 | 306 | 8 |
| 2025-12-06T11:45 | 4547 | 588 | -1.1 | -51.0 | ||
| 2025-12-06T11:45 | 4575 | 586 | -0.9 | -50.9 | ||
| 2025-12-06T11:45 | 4698 | 577 | 0.8 | -49.8 | ||
| 2025-12-06T11:45 | 4720 | 576 | 281 | 15 | ||
| 2025-12-06T11:46 | 4782 | 571 | 1.6 | -49.3 | ||
| 2025-12-06T11:46 | 4991 | 557 | 289 | 18 | ||
| 2025-12-06T11:47 | 5149 | 546 | -0.5 | -37.9 | ||
| 2025-12-06T11:47 | 5246 | 539 | -0.3 | -44.3 | ||
| 2025-12-06T11:47 | 5320 | 534 | 273 | 22 | ||
| 2025-12-06T11:48 | 5499 | 522 | -1.4 | -41.3 | ||
| 2025-12-06T11:48 | 5653 | 512 | 265 | 23 | ||
| 2025-12-06T11:49 | 5989 | 491 | 265 | 23 | ||
| 2025-12-06T11:50 | 6148 | 481 | -6.8 | -45.1 | ||
| 2025-12-06T11:50 | 6335 | 469 | 270 | 25 | ||
| 2025-12-06T11:51 | 6655 | 450 | -9.9 | -50.8 | ||
| 2025-12-06T11:51 | 6684 | 449 | 268 | 27 | ||
| 2025-12-06T11:52 | 7013 | 430 | 268 | 24 | ||
| 2025-12-06T11:53 | 7177 | 421 | -13.3 | -53.1 | ||
| 2025-12-06T11:53 | 7351 | 411 | 268 | 27 | ||
| 2025-12-06T11:53 | 7413 | 408 | -13.5 | -58.9 | ||
| 2025-12-06T11:54 | 7589 | 398 | -14.1 | -59.3 | ||
| 2025-12-06T11:54 | 7670 | 394 | 269 | 29 | ||
| 2025-12-06T11:54 | 7675 | 394 | -14.2 | -47.8 | ||
| 2025-12-06T11:55 | 7975 | 379 | 271 | 29 | ||
| 2025-12-06T11:56 | 8210 | 367 | -19.1 | -44.1 | ||
| 2025-12-06T11:56 | 8285 | 363 | 271 | 29 | ||
| 2025-12-06T11:57 | 8510 | 352 | -21.2 | -48.0 | ||
| 2025-12-06T11:57 | 8599 | 348 | 271 | 30 | ||
| 2025-12-06T11:58 | 8906 | 334 | 263 | 30 | ||
| 2025-12-06T11:58 | 8960 | 331 | -24.2 | -53.2 | ||
| 2025-12-06T11:59 | 9232 | 319 | 260 | 30 | ||
| 2025-12-06T12:00 | 9551 | 305 | 260 | 29 | ||
| 2025-12-06T12:01 | 9873 | 292 | 259 | 30 | ||
| 2025-12-06T12:01 | 9901 | 290 | -32.9 | -57.2 | ||
| 2025-12-06T12:02 | 10215 | 278 | 266 | 32 | ||
| 2025-12-06T12:02 | 10237 | 277 | -35.0 | -60.0 | ||
| 2025-12-06T12:03 | 10524 | 266 | 271 | 34 | ||
| 2025-12-06T12:03 | 10538 | 265 | -36.7 | -62.7 | ||
| 2025-12-06T12:04 | 10782 | 256 | 267 | 33 | ||
| 2025-12-06T12:05 | 11042 | 246 | -40.0 | -65.3 | 263 | 34 |
| 2025-12-06T12:06 | 11307 | 237 | 255 | 35 | ||
| 2025-12-06T12:07 | 11508 | 230 | -43.2 | |||
| 2025-12-06T12:07 | 11567 | 228 | 257 | 37 | ||
| 2025-12-06T12:08 | 11813 | 220 | 253 | 37 | ||
| 2025-12-06T12:09 | 12097 | 211 | 250 | 37 | ||
| 2025-12-06T12:09 | 12150 | 209 | -48.0 | |||
| 2025-12-06T12:10 | 12338 | 203 | 248 | 37 | ||
| 2025-12-06T12:11 | 12696 | 192 | 240 | 34 | ||
| 2025-12-06T12:12 | 12960 | 184 | -55.0 | |||
| 2025-12-06T12:12 | 13053 | 182 | 230 | 36 | ||
| 2025-12-06T12:13 | 13357 | 173 | 227 | 38 | ||
| 2025-12-06T12:14 | 13637 | 166 | 226 | 39 | ||
| 2025-12-06T12:14 | 13820 | 161 | -62.0 | |||
| 2025-12-06T12:15 | 13946 | 158 | 230 | 39 | ||
| 2025-12-06T12:16 | 14306 | 149 | 240 | 34 | ||
| 2025-12-06T12:17 | 14617 | 141 | 251 | 31 | ||
| 2025-12-06T12:18 | 14889 | 135 | 254 | 30 | ||
| 2025-12-06T12:18 | 15056 | 131 | -71.9 | |||
| 2025-12-06T12:19 | 15167 | 129 | 255 | 27 | ||
| 2025-12-06T12:19 | 15389 | 124 | -73.3 | |||
| 2025-12-06T12:20 | 15460 | 122 | 243 | 23 | ||
| 2025-12-06T12:20 | 15603 | 119 | -74.7 | |||
| 2025-12-06T12:21 | 15741 | 117 | 239 | 20 | ||
| 2025-12-06T12:21 | 15958 | 112 | -76.2 | |||
| 2025-12-06T12:22 | 16018 | 111 | 250 | 17 | ||
| 2025-12-06T12:22 | 16230 | 107 | 237 | 12 | ||
| 2025-12-06T12:23 | 16325 | 105 | -77.7 | |||
| 2025-12-06T12:24 | 16507 | 102 | 247 | 12 | ||
| 2025-12-06T12:24 | 16643 | 100 | -79.2 | |||
| 2025-12-06T12:24 | 16681 | 99 | 256 | 11 | ||
| 2025-12-06T12:25 | 16863 | 96 | 222 | 8 | ||
| 2025-12-06T12:25 | 17083 | 92 | -80.2 | |||
| 2025-12-06T12:26 | 17158 | 91 | 186 | 14 | ||
| 2025-12-06T12:27 | 17419 | 87 | 187 | 11 | ||
| 2025-12-06T12:27 | 17509 | 85 | -80.8 | |||
| 2025-12-06T12:28 | 17690 | 83 | 181 | 12 | ||
| 2025-12-06T12:28 | 17774 | 82 | -81.7 | |||
| 2025-12-06T12:29 | 17968 | 79 | 203 | 13 | ||
| 2025-12-06T12:29 | 18090 | 77 | -82.2 | |||
| 2025-12-06T12:30 | 18229 | 75 | 217 | 7 | ||
| 2025-12-06T12:30 | 18290 | 74 | -82.1 | |||
| 2025-12-06T12:30 | 18312 | 74 | 228 | 4 | ||
| 2025-12-06T12:30 | 18383 | 73 | -79.7 | |||
| 2025-12-06T12:30 | 18397 | 73 | 195 | 6 | ||
| 2025-12-06T12:31 | 18586 | 71 | 191 | 10 | ||
| 2025-12-06T12:31 | 18641 | 70 | -80.6 | |||
| 2025-12-06T12:32 | 18798 | 68 | 236 | 10 | ||
| 2025-12-06T12:32 | 18950 | 66 | -75.4 | |||
| 2025-12-06T12:33 | 19086 | 65 | 308 | 4 | ||
| 2025-12-06T12:33 | 19112 | 64 | -72.7 | |||
| 2025-12-06T12:33 | 19307 | 62 | 345 | 3 | ||
| 2025-12-06T12:34 | 19518 | 60 | 159 | 3 | ||
| 2025-12-06T12:34 | 19637 | 59 | 153 | 8 | ||
| 2025-12-06T12:35 | 19647 | 59 | -73.4 | |||
| 2025-12-06T12:35 | 19759 | 58 | 149 | 7 | ||
| 2025-12-06T12:36 | 19944 | 56 | 128 | 5 | ||
| 2025-12-06T12:36 | 20127 | 54 | -70.7 | |||
| 2025-12-06T12:36 | 20184 | 54 | 97 | 3 | ||
| 2025-12-06T12:37 | 20294 | 53 | 67 | 3 | ||
| 2025-12-06T12:37 | 20373 | 52 | 65 | 4 | ||
| 2025-12-06T12:37 | 20467 | 51 | -69.9 | 50 | 7 | |
| 2025-12-06T12:38 | 20584 | 50 | -68.8 | |||
| 2025-12-06T12:38 | 20609 | 50 | 92 | 10 | ||
| 2025-12-06T12:38 | 20651 | 50 | -67.5 | 87 | 8 | |
| 2025-12-06T23:31 | 8 | 1020 | 21.2 | 14.6 | 30 | 3 |
| 2025-12-06T23:31 | 14 | 1019 | 21.3 | 14.9 | 0 | 0 |
| 2025-12-06T23:31 | 48 | 1015 | 21.3 | 13.7 | ||
| 2025-12-06T23:31 | 87 | 1011 | 66 | 4 | ||
| 2025-12-06T23:31 | 126 | 1006 | 22.1 | 13.2 | ||
| 2025-12-06T23:32 | 305 | 986 | 61 | 9 | ||
| 2025-12-06T23:32 | 487 | 965 | 18.7 | 11.8 | ||
| 2025-12-06T23:33 | 636 | 948 | 65 | 9 | ||
| 2025-12-06T23:34 | 993 | 909 | 71 | 8 | ||
| 2025-12-06T23:35 | 1226 | 884 | 11.7 | 10.6 | ||
| 2025-12-06T23:35 | 1347 | 872 | 95 | 10 | ||
| 2025-12-06T23:35 | 1423 | 864 | 11.0 | 6.9 | ||
| 2025-12-06T23:36 | 1706 | 835 | 103 | 10 | ||
| 2025-12-06T23:37 | 1912 | 814 | 6.4 | 4.7 | ||
| 2025-12-06T23:37 | 1968 | 809 | 6.6 | 0.9 | ||
| 2025-12-06T23:37 | 2040 | 802 | 8.1 | -10.3 | ||
| 2025-12-06T23:37 | 2045 | 801 | 82 | 10 | ||
| 2025-12-06T23:37 | 2073 | 798 | 9.9 | -20.4 | ||
| 2025-12-06T23:37 | 2163 | 790 | 10.4 | -22.5 | ||
| 2025-12-06T23:37 | 2192 | 787 | 11.9 | -36.2 | ||
| 2025-12-06T23:38 | 2326 | 775 | 12.2 | -36.0 | ||
| 2025-12-06T23:38 | 2332 | 774 | 105 | 11 | ||
| 2025-12-06T23:39 | 2686 | 742 | 108 | 10 | ||
| 2025-12-06T23:39 | 2733 | 738 | 9.4 | -33.8 | ||
| 2025-12-06T23:40 | 3033 | 711 | 106 | 10 | ||
| 2025-12-06T23:40 | 3217 | 696 | 108 | 11 | ||
| 2025-12-06T23:40 | 3248 | 693 | 5.6 | -36.4 | ||
| 2025-12-06T23:41 | 3531 | 669 | 3.5 | -37.9 | ||
| 2025-12-06T23:41 | 3566 | 666 | 87 | 10 | ||
| 2025-12-06T23:42 | 3918 | 638 | 2.0 | -49.1 | ||
| 2025-12-06T23:42 | 3924 | 637 | 128 | 3 | ||
| 2025-12-06T23:42 | 3996 | 632 | 2.4 | -48.8 | ||
| 2025-12-06T23:43 | 4125 | 622 | 1.5 | -49.4 | ||
| 2025-12-06T23:43 | 4177 | 618 | 1.7 | -49.3 | 324 | 3 |
| 2025-12-06T23:43 | 4287 | 609 | 324 | 1 | ||
| 2025-12-06T23:43 | 4358 | 604 | 1.0 | -49.7 | ||
| 2025-12-06T23:43 | 4364 | 603 | 249 | 3 | ||
| 2025-12-06T23:44 | 4479 | 595 | 0.7 | -39.8 | ||
| 2025-12-06T23:44 | 4560 | 589 | 244 | 3 | ||
| 2025-12-06T23:44 | 4678 | 580 | 261 | 4 | ||
| 2025-12-06T23:44 | 4761 | 574 | 272 | 3 | ||
| 2025-12-06T23:45 | 4840 | 569 | 316 | 4 | ||
| 2025-12-06T23:45 | 4927 | 562 | -3.0 | -35.7 | ||
| 2025-12-06T23:46 | 5098 | 550 | -2.7 | -42.2 | ||
| 2025-12-06T23:46 | 5159 | 546 | 287 | 12 | ||
| 2025-12-06T23:46 | 5193 | 544 | -2.7 | -42.2 | ||
| 2025-12-06T23:47 | 5457 | 526 | 272 | 16 | ||
| 2025-12-06T23:47 | 5499 | 523 | -3.3 | -46.3 | ||
| 2025-12-06T23:48 | 5746 | 507 | -4.7 | -47.3 | ||
| 2025-12-06T23:48 | 5778 | 505 | 260 | 18 | ||
| 2025-12-06T23:49 | 6087 | 485 | -5.9 | -44.4 | ||
| 2025-12-06T23:49 | 6110 | 484 | 270 | 18 | ||
| 2025-12-06T23:50 | 6429 | 465 | 272 | 21 | ||
| 2025-12-06T23:50 | 6591 | 455 | -8.8 | -50.1 | ||
| 2025-12-06T23:50 | 6654 | 451 | 270 | 23 | ||
| 2025-12-06T23:51 | 6826 | 441 | -9.3 | -50.4 | ||
| 2025-12-06T23:51 | 6953 | 434 | 277 | 25 | ||
| 2025-12-06T23:52 | 7033 | 430 | -10.4 | -42.9 | ||
| 2025-12-06T23:52 | 7257 | 417 | 260 | 26 | ||
| 2025-12-06T23:53 | 7296 | 415 | -12.2 | -38.7 | ||
| 2025-12-06T23:53 | 7542 | 402 | 259 | 26 | ||
| 2025-12-06T23:54 | 7746 | 391 | -16.2 | -39.9 | ||
| 2025-12-06T23:54 | 7833 | 387 | 257 | 23 | ||
| 2025-12-06T23:55 | 8175 | 369 | 264 | 24 | ||
| 2025-12-06T23:56 | 8406 | 358 | -21.9 | -43.0 |
Only the first 2000 rows were shown. To view the complete dataset, download it as tab-delimited text. You can still view the full matrix in your browser, but be aware that this may crash the browser due to the huge size.
